USGS Flow Graphs:

Purgatoire River at Madrid,CO
Purgatoire River below Trinidad Lake


Provisional Data Disclaimer

Real time data available on this website are provisional data that have not been reviewed or edited. These data may be subject to significant change and are not citeable until reviewed and approved by Tetra Tech.


Home

From 01-Jan-2017 00:00 To 24-Jul-2017 06:34

Time Series Table

Date/Time MST SFPR-0.1-pH SFPR-0.1-Temperature SFPR-0.1-Conductivity SFPR-0.1-Chloride PR-37.1-pH PR-37.1-Temperature PR-37.1-Conductivity PR-37.1-Chloride WET-0.3-pH WET-0.3-Temperature WET-0.3-Conductivity WET-0.3-Chloride PR-16.9-pH PR-16.9-Temperature PR-16.9-Conductivity PR-16.9-Chloride LOR-0.2-pH LOR-0.2-Temperature LOR-0.2-Conductivity LOR-0.2-Chloride PR-24.9-pH PR-24.9-Temperature PR-24.9-Conductivity PR-24.9-Chloride SAR-0.4-pH SAR-0.4-Temperature SAR-0.4-Conductivity SAR-0.4-Chloride PR-8.8-pH PR-8.8-Temperature PR-8.8-Conductivity PR-8.8-Chloride LOR-0.2-Discharge PR-16.9-Discharge PR-24.9-Discharge PR-37.1-Discharge SAR-0.4-Discharge SFPR-0.1-Discharge WET-0.3-Discharge REI-1.4-pH REI-1.4-Temperature REI-1.4-Conductivity REI-1.4-Chloride REI-1.4-Discharge PR-8.8-SAR PR-16.9-SAR PR-24.9-SAR
24-Jul-2017 06:00 - - - - - - - - - - - - 7.14 15.30 432.00 17.58 - - - - - - - - - - - - 7.47 15.93 329.00 10.58 - 108.63 - - - - - - - - - - 1.58 2.13 -
24-Jul-2017 05:45 - - - - - - - - - - - - 7.14 15.38 434.00 17.72 - - - - - - - - - - - - 7.47 16.07 329.00 10.58 - 106.28 - - - - - - - - - - 1.58 2.14 -
24-Jul-2017 05:30 - - - - - - - - - - - - 7.14 15.47 436.00 17.85 - - - - - - - - - - - - 7.47 16.18 328.00 10.51 - 106.28 - - - - - - - - - - 1.57 2.15 -
24-Jul-2017 05:15 - - - - - - - - - - - - 7.14 15.56 435.00 17.78 - - - - - - - - - - - - 7.47 16.27 328.00 10.51 - 106.28 - - - - - - - - - - 1.57 2.15 -
24-Jul-2017 05:00 - - - - - - - - - - - - 7.14 15.65 435.00 17.78 - - - - 7.79 12.22 0.00 -8.39 - - - - 7.47 16.39 329.00 10.58 - 106.28 21.93 - - - - - - - - - 1.58 2.15 -0.80
24-Jul-2017 04:45 - - - - - - - - - - - - 7.14 15.74 434.00 17.72 - - - - 7.78 12.35 0.10 -8.39 - - - - 7.47 16.50 329.00 10.58 - 106.28 21.93 - - - - - - - - - 1.58 2.14 -0.80
24-Jul-2017 04:30 - - - - - - - - - - - - 7.14 15.82 438.00 17.99 - - - - 7.75 12.58 0.00 -8.39 - - - - 7.47 16.61 329.00 10.58 - 106.28 21.93 - - - - - - - - - 1.58 2.17 -0.80
24-Jul-2017 04:15 - - - - - - - - - - - - 7.14 15.91 438.00 17.99 - - - - 7.73 12.64 0.00 -8.39 - - - - 7.47 16.69 329.00 10.58 - 106.28 21.93 - - - - - - - - - 1.58 2.17 -0.80
24-Jul-2017 04:00 - - - - - - - - - - - - 7.13 16.00 439.00 18.06 - - - - 7.71 12.74 0.00 -8.39 - - - - 7.47 16.80 329.00 10.58 - 106.28 21.93 - - - - - - - - - 1.58 2.17 -0.80
24-Jul-2017 03:45 - - - - - - - - - - - - 7.13 16.08 439.00 18.06 - - - - 7.72 12.87 0.00 -8.39 - - - - 7.47 16.88 329.00 10.58 - 106.28 21.93 - - - - - - - - - 1.58 2.17 -0.80
24-Jul-2017 03:30 - - - - - - - - - - - - 7.13 16.18 439.00 18.06 - - - - 7.71 12.99 0.00 -8.39 - - - - 7.47 17.00 328.00 10.51 - 106.28 21.93 - - - - - - - - - 1.57 2.17 -0.80
24-Jul-2017 03:15 - - - - - - - - - - - - 7.13 16.27 439.00 18.06 - - - - 7.73 13.16 0.00 -8.39 - - - - 7.47 17.11 329.00 10.58 - 106.28 21.93 - - - - - - - - - 1.58 2.17 -0.80
24-Jul-2017 03:00 - - - - - - - - - - - - 7.13 16.36 439.00 18.06 - - - - 7.75 13.41 0.10 -8.39 - - - - 7.47 17.22 329.00 10.58 - 106.28 21.93 - - - - - - - - - 1.58 2.17 -0.80
24-Jul-2017 02:45 - - - - - - - - - - - - 7.13 16.46 441.00 18.19 - - - - 7.74 13.60 0.00 -8.39 - - - - 7.48 17.33 327.00 10.44 - 106.28 21.93 - - - - - - - - - 1.56 2.19 -0.80
24-Jul-2017 02:30 - - - - - - - - - - - - 7.13 16.55 440.00 18.12 - - - - 7.72 13.72 0.00 -8.39 - - - - 7.48 17.43 326.00 10.37 - 106.28 21.21 - - - - - - - - - 1.56 2.18 -0.80
24-Jul-2017 02:15 - - - - - - - - - - - - 7.13 16.65 439.00 18.06 - - - - 7.74 13.80 0.00 -8.39 - - - - 7.48 17.54 326.00 10.37 - 106.28 21.21 - - - - - - - - - 1.56 2.17 -0.80
24-Jul-2017 02:00 - - - - - - - - - - - - 7.13 16.74 440.00 18.12 - - - - - - - - - - - - 7.48 17.72 327.00 10.44 - 106.28 - - - - - - - - - - 1.56 2.18 -
24-Jul-2017 01:45 - - - - - - - - - - - - 7.13 16.84 440.00 18.12 - - - - - - - - - - - - 7.48 17.80 328.00 10.51 - 106.28 - - - - - - - - - - 1.57 2.18 -
24-Jul-2017 01:30 - - - - - - - - - - - - 7.13 16.95 441.00 18.19 - - - - - - - - - - - - 7.48 18.03 328.00 10.51 - 106.28 - - - - - - - - - - 1.57 2.19 -
24-Jul-2017 01:15 - - - - - - - - - - - - 7.13 17.05 442.00 18.26 - - - - - - - - - - - - 7.48 18.13 327.00 10.44 - 106.28 - - - - - - - - - - 1.56 2.19 -
24-Jul-2017 01:00 - - - - - - - - - - - - 7.13 17.15 444.00 18.40 - - - - 7.65 14.63 0.00 -8.39 - - - - 7.48 18.35 327.00 10.44 - 106.28 21.21 - - - - - - - - - 1.56 2.21 -0.80
24-Jul-2017 00:45 - - - - - - - - - - - - 7.12 17.25 445.00 18.46 - - - - 7.68 14.98 0.00 -8.39 - - - - 7.48 18.54 326.00 10.37 - 106.28 21.21 - - - - - - - - - 1.56 2.21 -0.80
24-Jul-2017 00:30 - - - - - - - - - - - - 7.12 17.35 445.00 18.46 - - - - 7.67 15.08 0.00 -8.39 - - - - 7.49 18.68 326.00 10.37 - 106.28 20.50 - - - - - - - - - 1.56 2.21 -0.80
24-Jul-2017 00:15 - - - - - - - - - - - - 7.12 17.44 446.00 18.53 - - - - 7.69 15.27 0.00 -8.39 - - - - 7.49 18.82 326.00 10.37 - 106.28 21.21 - - - - - - - - - 1.56 2.22 -0.80
24-Jul-2017 00:00 - - - - - - - - - - - - 7.12 17.53 446.00 18.53 - - - - 7.69 15.47 0.00 -8.39 - - - - 7.49 18.93 326.00 10.37 - 106.28 21.21 - - - - - - - - - 1.56 2.22 -0.80
23-Jul-2017 23:45 - - - - - - - - - - - - 7.12 17.62 450.00 18.80 - - - - 7.67 15.62 0.00 -8.39 - - - - 7.49 19.09 326.00 10.37 - 106.28 20.50 - - - - - - - - - 1.56 2.25 -0.80
23-Jul-2017 23:30 - - - - - - - - - - - - 7.12 17.70 448.00 18.67 - - - - 7.61 15.71 0.00 -8.39 - - - - 7.49 19.25 325.00 10.30 - 106.28 20.50 - - - - - - - - - 1.55 2.23 -0.80
23-Jul-2017 23:15 - - - - - - - - - - - - 7.12 17.79 449.00 18.74 - - - - 7.58 15.94 0.10 -8.39 - - - - 7.49 19.33 326.00 10.37 - 106.28 21.21 - - - - - - - - - 1.56 2.24 -0.80
23-Jul-2017 23:00 - - - - - - - - - - - - 7.11 17.89 449.00 18.74 - - - - 7.50 15.94 0.00 -8.39 - - - - 7.49 19.51 325.00 10.30 - 106.28 20.50 - - - - - - - - - 1.55 2.24 -0.80
23-Jul-2017 22:45 - - - - - - - - - - - - 7.11 17.99 449.00 18.74 - - - - 7.54 16.27 0.00 -8.39 - - - - 7.49 19.63 323.00 10.17 - 106.28 20.50 - - - - - - - - - 1.54 2.24 -0.80
23-Jul-2017 22:30 - - - - - - - - - - - - 7.11 18.09 452.00 18.94 - - - - 7.49 16.45 0.00 -8.39 - - - - 7.49 19.75 323.00 10.17 - 106.28 20.50 - - - - - - - - - 1.54 2.26 -0.80
23-Jul-2017 22:15 - - - - - - - - - - - - 7.11 18.21 451.00 18.87 - - - - 7.33 16.47 0.00 -8.39 - - - - 7.49 19.87 322.00 10.10 - 106.28 20.50 - - - - - - - - - 1.53 2.25 -0.80
23-Jul-2017 22:00 - - - - - - - - - - - - 7.11 18.33 452.00 18.94 - - - - 7.20 16.62 0.00 -8.39 - - - - 7.49 20.00 323.00 10.17 - 106.28 20.50 - - - - - - - - - 1.54 2.26 -0.80
23-Jul-2017 21:45 - - - - - - - - - - - - 7.11 18.45 453.00 19.01 - - - - 7.20 16.96 0.00 -8.39 - - - - 7.48 20.14 322.00 10.10 - 108.63 20.50 - - - - - - - - - 1.53 2.26 -0.80
23-Jul-2017 21:30 - - - - - - - - - - - - 7.11 18.57 454.00 1,310.71 - - - - 7.15 17.18 0.00 -8.39 - - - - 7.48 20.26 322.00 10.10 - 108.63 19.81 - - - - - - - - - 1.53 2.27 -0.80
23-Jul-2017 21:15 - - - - - - - - - - - - 7.11 18.69 454.00 19.08 - - - - 7.09 17.44 0.00 -8.39 - - - - 7.48 20.38 322.00 10.10 - 108.63 20.50 - - - - - - - - - 1.53 2.27 -0.80
23-Jul-2017 21:00 - - - - - - - - - - - - 7.11 18.81 455.00 19.14 - - - - 7.04 17.54 0.00 -8.39 - - - - 7.48 20.49 323.00 10.17 - 108.63 21.21 - - - - - - - - - 1.54 2.28 -0.80
23-Jul-2017 20:45 - - - - - - - - - - - - 7.11 18.93 455.00 19.14 - - - - 6.89 17.91 0.00 -8.39 - - - - 7.48 20.61 323.00 10.17 - 108.63 20.50 - - - - - - - - - 1.54 2.28 -0.80
23-Jul-2017 20:30 - - - - - - - - - - - - 7.11 19.04 456.00 19.21 - - - - 6.87 18.14 0.00 -8.39 - - - - 7.48 20.73 323.00 10.17 - 111.01 20.50 - - - - - - - - - 1.54 2.28 -0.80
23-Jul-2017 20:15 - - - - - - - - - - - - 7.12 19.16 457.00 19.28 - - - - 7.07 18.38 0.00 -8.39 - - - - 7.48 20.88 322.00 10.10 - 111.01 21.21 - - - - - - - - - 1.53 2.29 -0.80
23-Jul-2017 20:00 - - - - - - - - - - - - 7.13 19.26 458.00 19.35 - - - - 7.15 18.73 0.00 -8.39 - - - - 7.47 21.06 323.00 10.17 - 113.42 21.21 - - - - - - - - - 1.54 2.30 -0.80
23-Jul-2017 19:45 - - - - - - - - - - - - 7.13 19.37 459.00 19.42 - - - - 7.27 19.26 0.00 -8.39 - - - - 7.47 21.26 323.00 10.17 - 113.42 21.21 - - - - - - - - - 1.54 2.30 -0.80
23-Jul-2017 19:30 - - - - - - - - - - - - 7.13 19.48 459.00 19.42 - - - - 7.33 19.64 0.00 -8.39 - - - - 7.47 21.49 324.00 10.24 - 115.86 21.21 - - - - - - - - - 1.54 2.30 -0.80
23-Jul-2017 19:15 - - - - - - - - - - - - 7.12 19.58 460.00 19.48 - - - - 7.97 19.90 0.00 -8.39 - - - - 7.47 21.72 324.00 10.24 - 115.86 21.21 - - - - - - - - - 1.54 2.31 -0.80
23-Jul-2017 19:00 - - - - - - - - - - - - 7.13 19.67 462.00 19.62 - - - - 8.16 20.02 0.00 -8.39 - - - - 7.46 21.94 325.00 10.30 - 115.86 21.21 - - - - - - - - - 1.55 2.32 -0.80
23-Jul-2017 18:45 - - - - - - - - - - - - 7.13 19.76 463.00 19.69 - - - - 8.08 20.17 0.00 -8.39 - - - - 7.46 22.16 325.00 10.30 - 115.86 21.93 - - - - - - - - - 1.55 2.33 -0.80
23-Jul-2017 18:30 - - - - - - - - - - - - 7.13 19.83 464.00 19.76 - - - - 8.16 20.30 0.00 -8.39 - - - - 7.46 22.34 326.00 10.37 - 115.86 21.93 - - - - - - - - - 1.56 2.34 -0.80
23-Jul-2017 18:15 - - - - - - - - - - - - 7.13 19.89 466.00 19.89 - - - - 8.16 20.58 0.00 -8.39 - - - - 7.46 22.48 327.00 10.44 - 118.33 21.21 - - - - - - - - - 1.56 2.35 -0.80
23-Jul-2017 18:00 - - - - - - - - - - - - - - - - - - - - 8.33 20.75 0.10 -8.39 - - - - 7.46 22.58 328.00 10.51 - - 21.93 - - - - - - - - - 1.57 - -0.80
23-Jul-2017 17:45 - - - - - - - - - - - - - - - - - - - - 8.06 20.95 0.00 -8.39 - - - - 7.46 22.63 329.00 10.58 - - 21.93 - - - - - - - - - 1.58 - -0.80
23-Jul-2017 17:30 - - - - - - - - - - - - - - - - - - - - 8.32 20.90 0.00 -8.39 - - - - 7.46 22.69 329.00 10.58 - - 22.67 - - - - - - - - - 1.58 - -0.80
23-Jul-2017 17:15 - - - - - - - - - - - - - - - - - - - - 8.32 21.29 0.00 -8.39 - - - - 7.46 22.81 328.00 10.51 - - 24.21 - - - - - - - - - 1.57 - -0.80
23-Jul-2017 17:00 - - - - - - - - - - - - - - - - - - - - 8.16 21.58 0.10 -8.39 - - - - 7.45 22.98 329.00 10.58 - - 25.01 - - - - - - - - - 1.58 - -0.80
23-Jul-2017 16:45 - - - - - - - - - - - - - - - - - - - - 8.06 21.75 0.00 -8.39 - - - - 7.45 23.15 330.00 10.64 - - 24.21 - - - - - - - - - 1.58 - -0.80
23-Jul-2017 16:30 - - - - - - - - - - - - - - - - - - - - 8.10 21.58 0.00 -8.39 - - - - 7.45 23.43 330.00 10.64 - - 25.01 - - - - - - - - - 1.58 - -0.80
23-Jul-2017 16:15 - - - - - - - - - - - - - - - - - - - - 8.34 21.64 0.10 -8.39 - - - - 7.45 23.63 332.00 10.78 - - 25.01 - - - - - - - - - 1.59 - -0.80
23-Jul-2017 16:00 - - - - - - - - - - - - 7.15 20.30 475.00 20.50 - - - - 8.27 22.01 0.00 -8.39 - - - - 7.45 23.75 332.00 10.78 - 120.82 25.01 - - - - - - - - - 1.59 2.41 -0.80
23-Jul-2017 15:45 - - - - - - - - - - - - 7.15 20.30 475.00 20.50 - - - - 8.21 21.96 0.10 -8.39 - - - - 7.45 23.93 333.00 10.85 - 123.35 25.01 - - - - - - - - - 1.60 2.41 -0.80
23-Jul-2017 15:30 - - - - - - - - - - - - 7.15 20.27 478.00 20.71 - - - - 8.42 22.83 0.00 -8.39 - - - - 7.45 23.98 334.00 10.92 - 123.35 25.83 - - - - - - - - - 1.61 2.43 -0.80
23-Jul-2017 15:15 - - - - - - - - - - - - 7.16 20.25 478.00 20.71 - - - - 8.91 22.57 0.00 -8.39 - - - - 7.46 23.89 334.00 10.92 - 123.35 25.83 - - - - - - - - - 1.61 2.43 -0.80
23-Jul-2017 15:00 - - - - - - - - - - - - 7.16 20.23 478.00 20.71 - - - - 8.92 21.88 0.00 -8.39 - - - - 7.46 23.68 333.00 10.85 - 123.35 25.83 - - - - - - - - - 1.60 2.43 -0.80
23-Jul-2017 14:45 - - - - - - - - - - - - 7.16 20.17 480.00 20.84 - - - - 8.95 22.04 0.00 -8.39 - - - - 7.46 23.73 333.00 10.85 - 123.35 26.67 - - - - - - - - - 1.60 2.44 -0.80
23-Jul-2017 14:30 - - - - - - - - - - - - 7.17 20.03 487.00 21.32 - - - - 9.05 21.92 0.00 -8.39 - - - - 7.47 23.60 334.00 10.92 - 123.35 26.67 - - - - - - - - - 1.61 2.49 -0.80
23-Jul-2017 14:15 - - - - - - - - - - - - 7.18 19.87 485.00 21.18 - - - - 8.82 21.59 0.00 1,310.71 - - - - 7.47 23.32 334.00 10.92 - 123.35 26.67 - - - - - - - - - 1.61 2.48 -0.80
23-Jul-2017 14:00 - - - - - - - - - - - - - - - - - - - - 8.93 21.27 0.00 -8.39 - - - - 7.47 23.02 334.00 10.92 - - 26.67 - - - - - - - - - 1.61 - -0.80
23-Jul-2017 13:45 - - - - - - - - - - - - - - - - - - - - 8.93 21.94 0.00 -8.39 - - - - 7.48 22.79 334.00 10.92 - - 27.53 - - - - - - - - - 1.61 - -0.80
23-Jul-2017 13:30 - - - - - - - - - - - - - - - - - - - - 8.92 21.54 0.00 -8.39 - - - - 7.48 22.48 334.00 10.92 - - 27.53 - - - - - - - - - 1.61 - -0.80
23-Jul-2017 13:15 - - - - - - - - - - - - - - - - - - - - 8.88 22.39 0.00 -8.39 - - - - 7.49 22.15 335.00 10.98 - - 27.53 - - - - - - - - - 1.61 - -0.80
23-Jul-2017 13:00 - - - - - - - - - - - - 7.19 18.53 481.00 20.91 - - - - 8.54 21.12 0.00 -8.39 - - - - 7.49 21.78 334.00 10.92 - 125.91 27.53 - - - - - - - - - 1.61 2.45 -0.80
23-Jul-2017 12:45 - - - - - - - - - - - - 7.20 18.16 480.00 20.84 - - - - 8.35 19.79 0.00 -8.39 - - - - 7.50 21.44 334.00 10.92 - 125.91 27.53 - - - - - - - - - 1.61 2.44 -0.80
23-Jul-2017 12:30 - - - - - - - - - - - - 7.20 17.83 479.00 20.78 - - - - 8.38 19.11 0.00 -8.39 - - - - 7.51 21.07 333.00 10.85 - 125.91 28.40 - - - - - - - - - 1.60 2.44 -0.80
23-Jul-2017 12:15 - - - - - - - - - - - - 7.20 17.49 478.00 20.71 - - - - 8.31 18.89 0.00 -8.39 - - - - 7.51 20.65 333.00 10.85 - 125.91 28.40 - - - - - - - - - 1.60 2.43 -0.80
23-Jul-2017 12:00 - - - - - - - - - - - - 7.20 17.16 475.00 20.50 - - - - 8.28 18.82 0.00 -8.39 - - - - 7.52 20.31 333.00 10.85 - 125.91 28.40 - - - - - - - - - 1.60 2.41 -0.80
23-Jul-2017 11:45 - - - - - - - - - - - - 7.20 16.87 469.00 20.10 - - - - 8.18 18.49 0.00 -8.39 - - - - 7.52 19.91 330.00 10.64 - 125.91 28.40 - - - - - - - - - 1.58 2.37 -0.80
23-Jul-2017 11:30 - - - - - - - - - - - - 7.20 16.64 464.00 19.76 - - - - 8.09 18.47 0.00 -8.39 - - - - 7.52 19.54 329.00 10.58 - 125.91 28.40 - - - - - - - - - 1.58 2.34 -0.80
23-Jul-2017 11:15 - - - - - - - - - - - - 7.20 16.47 461.00 19.55 - - - - 8.09 18.25 0.00 -8.39 - - - - 7.53 19.17 329.00 10.58 - 125.91 28.40 - - - - - - - - - 1.58 2.32 -0.80
23-Jul-2017 11:00 - - - - - - - - - - - - 7.20 16.31 460.00 19.48 - - - - 8.15 18.11 0.00 -8.39 - - - - 7.53 18.81 328.00 10.51 - 125.91 28.40 - - - - - - - - - 1.57 2.31 -0.80
23-Jul-2017 10:45 - - - - - - - - - - - - 7.20 16.18 457.00 19.28 - - - - 8.30 17.88 0.00 -8.39 - - - - 7.54 18.45 327.00 10.44 - 125.91 28.40 - - - - - - - - - 1.56 2.29 -0.80
23-Jul-2017 10:30 - - - - - - - - - - - - 7.20 16.07 455.00 19.14 - - - - 8.35 18.02 0.00 -8.39 - - - - 7.54 18.11 327.00 10.44 - 128.50 28.40 - - - - - - - - - 1.56 2.28 -0.80
23-Jul-2017 10:15 - - - - - - - - - - - - 7.19 15.98 453.00 19.01 - - - - 8.42 17.67 0.00 -8.39 - - - - 7.54 17.77 327.00 10.44 - 125.91 29.30 - - - - - - - - - 1.56 2.26 -0.80
23-Jul-2017 10:00 - - - - - - - - - - - - 7.19 15.91 451.00 18.87 - - - - 8.50 17.80 0.00 -8.39 - - - - 7.54 17.47 325.00 10.30 - 125.91 28.40 - - - - - - - - - 1.55 2.25 -0.80
23-Jul-2017 09:45 - - - - - - - - - - - - 7.19 15.87 449.00 18.74 - - - - 8.52 17.56 0.00 -8.39 - - - - 7.54 17.18 325.00 10.30 - 125.91 28.40 - - - - - - - - - 1.55 2.24 -0.80
23-Jul-2017 09:30 - - - - - - - - - - - - 7.19 15.83 448.00 18.67 - - - - 8.51 17.60 0.00 -8.39 - - - - 7.54 16.93 324.00 10.24 - 125.91 28.40 - - - - - - - - - 1.54 2.23 -0.80
23-Jul-2017 09:15 - - - - - - - - - - - - 7.19 15.80 445.00 18.46 - - - - 8.52 18.02 0.00 -8.39 - - - - 7.55 16.70 323.00 10.17 - 128.50 29.30 - - - - - - - - - 1.54 2.21 -0.80
23-Jul-2017 09:00 - - - - - - - - - - - - 7.19 15.79 446.00 18.53 - - - - 8.52 17.25 0.00 -8.39 - - - - 7.54 16.49 322.00 10.10 - 125.91 29.30 - - - - - - - - - 1.53 2.22 -0.80
23-Jul-2017 08:45 - - - - - - - - - - - - 7.18 15.79 445.00 18.46 - - - - 8.52 18.29 0.10 -8.39 - - - - 7.54 16.32 321.00 10.03 - 125.91 28.40 - - - - - - - - - 1.53 2.21 -0.80
23-Jul-2017 08:30 - - - - - - - - - - - - 7.18 15.79 443.00 18.33 - - - - 8.53 18.29 0.30 -8.38 - - - - 7.54 16.18 321.00 10.03 - 125.91 28.40 - - - - - - - - - 1.53 2.20 -0.80
23-Jul-2017 08:15 - - - - - - - - - - - - 7.18 15.81 443.00 18.33 - - - - 8.52 17.67 0.40 -8.37 - - - - 7.54 16.08 319.00 9.90 - 125.91 29.30 - - - - - - - - - 1.51 2.20 -0.80
23-Jul-2017 08:00 - - - - - - - - - - - - 7.18 15.83 443.00 18.33 - - - - - - - - - - - - 7.53 16.00 320.00 9.96 - 128.50 - - - - - - - - - - 1.52 2.20 -
23-Jul-2017 07:45 - - - - - - - - - - - - 7.19 15.86 443.00 18.33 - - - - - - - - - - - - 7.53 15.93 319.00 9.90 - 125.91 - - - - - - - - - - 1.51 2.20 -
23-Jul-2017 07:30 - - - - - - - - - - - - 7.19 15.90 443.00 18.33 - - - - - - - - - - - - 7.53 15.91 318.00 9.83 - 125.91 - - - - - - - - - - 1.51 2.20 -
23-Jul-2017 07:15 - - - - - - - - - - - - 7.20 15.94 444.00 18.40 - - - - - - - - - - - - 7.53 15.92 317.00 9.76 - 128.50 - - - - - - - - - - 1.50 2.21 -
23-Jul-2017 07:00 - - - - - - - - - - - - 7.21 15.98 443.00 18.33 - - - - 8.46 13.25 0.60 -8.36 - - - - 7.53 15.95 316.00 9.69 - 128.50 29.30 - - - - - - - - - 1.49 2.20 -0.80
23-Jul-2017 06:45 - - - - - - - - - - - - 7.21 16.03 443.00 18.33 - - - - 8.44 12.71 0.70 -8.36 - - - - 7.53 16.00 316.00 9.69 - 128.50 29.30 - - - - - - - - - 1.49 2.20 -0.79
23-Jul-2017 06:30 - - - - - - - - - - - - 7.19 16.09 444.00 18.40 - - - - 8.44 12.88 0.60 -8.36 - - - - 7.53 16.07 317.00 9.76 - 128.50 29.30 - - - - - - - - - 1.50 2.21 -0.80
23-Jul-2017 06:15 - - - - - - - - - - - - 7.17 16.14 444.00 18.40 - - - - 8.44 12.87 0.60 -8.36 - - - - 7.53 16.16 317.00 9.76 - 128.50 29.30 - - - - - - - - - 1.50 2.21 -0.80
23-Jul-2017 06:00 - - - - - - - - - - - - 7.17 16.19 444.00 18.40 - - - - 8.43 13.03 0.60 -8.36 - - - - 7.52 16.24 317.00 9.76 - 128.50 30.22 - - - - - - - - - 1.50 2.21 -0.80
23-Jul-2017 05:45 - - - - - - - - - - - - 7.18 16.24 445.00 18.46 - - - - 8.39 13.16 0.60 -8.36 - - - - 7.52 16.33 318.00 9.83 - 131.12 30.22 - - - - - - - - - 1.51 2.21 -0.80
23-Jul-2017 05:30 - - - - - - - - - - - - 7.17 16.28 445.00 18.46 - - - - 8.39 13.31 0.60 -8.36 - - - - 7.52 16.41 317.00 9.76 - 131.12 30.22 - - - - - - - - - 1.50 2.21 -0.80
23-Jul-2017 05:15 - - - - - - - - - - - - 7.17 16.33 446.00 18.53 - - - - 8.43 13.43 0.70 -8.36 - - - - 7.52 16.50 319.00 9.90 - 131.12 30.22 - - - - - - - - - 1.51 2.22 -0.79
23-Jul-2017 05:00 - - - - - - - - - - - - 7.17 16.37 446.00 18.53 - - - - 8.38 13.65 0.60 -8.36 - - - - 7.52 16.58 318.00 9.83 - 131.12 30.22 - - - - - - - - - 1.51 2.22 -0.80
23-Jul-2017 04:45 - - - - - - - - - - - - 7.17 16.42 447.00 18.60 - - - - 8.38 13.66 0.60 -8.36 - - - - 7.52 16.66 319.00 9.90 - 131.12 30.22 - - - - - - - - - 1.51 2.23 -0.80
23-Jul-2017 04:30 - - - - - - - - - - - - 7.17 16.47 447.00 18.60 - - - - 8.38 13.75 0.60 -8.36 - - - - 7.52 16.75 318.00 9.83 - 131.12 31.16 - - - - - - - - - 1.51 2.23 -0.80
23-Jul-2017 04:15 - - - - - - - - - - - - 7.17 16.51 447.00 18.60 - - - - 8.38 13.81 0.60 -8.36 - - - - 7.51 16.84 318.00 9.83 - 133.76 31.16 - - - - - - - - - 1.51 2.23 -0.80
23-Jul-2017 04:00 - - - - - - - - - - - - 7.17 16.56 448.00 18.67 - - - - 8.42 13.89 0.60 -8.36 - - - - 7.51 16.93 318.00 9.83 - 133.76 31.16 - - - - - - - - - 1.51 2.23 -0.80
23-Jul-2017 03:45 - - - - - - - - - - - - 7.17 16.61 449.00 18.74 - - - - 8.39 13.97 0.60 -8.36 - - - - 7.51 17.01 318.00 9.83 - 133.76 31.16 - - - - - - - - - 1.51 2.24 -0.80
23-Jul-2017 03:30 - - - - - - - - - - - - 7.17 16.65 450.00 18.80 - - - - 8.39 14.01 0.50 -8.37 - - - - 7.51 17.10 318.00 9.83 - 136.44 31.16 - - - - - - - - - 1.51 2.25 -0.80
23-Jul-2017 03:15 - - - - - - - - - - - - 7.18 16.70 450.00 18.80 - - - - 8.39 14.04 0.60 -8.36 - - - - 7.51 17.18 320.00 9.96 - 136.44 32.13 - - - - - - - - - 1.52 2.25 -0.80
23-Jul-2017 03:00 - - - - - - - - - - - - 7.17 16.75 451.00 18.87 - - - - 8.40 14.16 0.60 -8.36 - - - - 7.51 17.27 319.00 9.90 - 139.15 32.13 - - - - - - - - - 1.51 2.25 -0.80
23-Jul-2017 02:45 - - - - - - - - - - - - 7.17 16.80 451.00 18.87 - - - - 8.41 14.16 0.60 -8.36 - - - - 7.51 17.36 320.00 9.96 - 139.15 32.13 - - - - - - - - - 1.52 2.25 -0.80
23-Jul-2017 02:30 - - - - - - - - - - - - 7.17 16.86 452.00 18.94 - - - - 8.42 14.22 0.60 -8.36 - - - - 7.50 17.46 320.00 9.96 - 141.89 33.11 - - - - - - - - - 1.52 2.26 -0.80
23-Jul-2017 02:15 - - - - - - - - - - - - 7.17 16.91 454.00 19.08 - - - - 8.42 14.36 0.70 -8.36 - - - - 7.51 17.54 320.00 9.96 - 141.89 33.11 - - - - - - - - - 1.52 2.27 -0.79
23-Jul-2017 02:00 - - - - - - - - - - - - 7.17 16.97 452.00 18.94 - - - - 8.42 14.49 0.60 -8.36 - - - - 7.51 17.63 320.00 9.96 - 141.89 33.11 - - - - - - - - - 1.52 2.26 -0.80
23-Jul-2017 01:45 - - - - - - - - - - - - 7.17 17.02 453.00 19.01 - - - - 8.43 14.51 0.60 -8.36 - - - - 7.51 17.71 320.00 9.96 - 141.89 34.12 - - - - - - - - - 1.52 2.26 -0.80
23-Jul-2017 01:30 - - - - - - - - - - - - 7.16 17.07 452.00 18.94 - - - - 8.43 14.52 0.60 -8.36 - - - - 7.51 17.79 320.00 9.96 - 144.66 34.12 - - - - - - - - - 1.52 2.26 -0.80
23-Jul-2017 01:15 - - - - - - - - - - - - 7.16 17.13 453.00 19.01 - - - - 8.43 14.64 0.70 -8.36 - - - - 7.51 17.87 320.00 9.96 - 144.66 35.15 - - - - - - - - - 1.52 2.26 -0.79
23-Jul-2017 01:00 - - - - - - - - - - - - 7.16 17.18 453.00 19.01 - - - - 8.43 14.79 0.60 -8.36 - - - - 7.50 17.94 320.00 9.96 - 144.66 36.20 - - - - - - - - - 1.52 2.26 -0.80
23-Jul-2017 00:45 - - - - - - - - - - - - 7.16 17.24 454.00 19.08 - - - - 8.42 14.93 0.60 -8.36 - - - - 7.50 18.01 321.00 10.03 - 144.66 37.28 - - - - - - - - - 1.53 2.27 -0.80
23-Jul-2017 00:30 - - - - - - - - - - - - 7.16 17.30 454.00 19.08 - - - - 8.42 14.98 0.60 -8.36 - - - - 7.50 18.08 320.00 9.96 - 144.66 37.28 - - - - - - - - - 1.52 2.27 -0.80
23-Jul-2017 00:15 - - - - - - - - - - - - 7.16 17.37 454.00 19.08 - - - - 8.43 15.01 0.90 -8.35 - - - - 7.50 18.15 320.00 9.96 - 144.66 38.38 - - - - - - - - - 1.52 2.27 -0.79
23-Jul-2017 00:00 - - - - - - - - - - - - 7.16 17.44 455.00 19.14 - - - - 8.42 15.06 0.90 -8.35 - - - - 7.50 18.23 319.00 9.90 - 144.66 39.50 - - - - - - - - - 1.51 2.28 -0.79
22-Jul-2017 23:45 - - - - - - - - - - - - 7.15 17.51 454.00 19.08 - - - - 8.42 15.11 0.90 -8.35 - - - - 7.50 18.31 321.00 10.03 - 147.47 40.65 - - - - - - - - - 1.53 2.27 -0.79
22-Jul-2017 23:30 - - - - - - - - - - - - 7.16 17.59 454.00 19.08 - - - - 8.42 15.16 0.70 -8.36 - - - - 7.50 18.39 321.00 10.03 - 147.47 40.65 - - - - - - - - - 1.53 2.27 -0.79
22-Jul-2017 23:15 - - - - - - - - - - - - 7.15 17.66 454.00 19.08 - - - - 8.42 15.22 0.70 -8.36 - - - - 7.50 18.47 323.00 10.17 - 144.66 40.65 - - - - - - - - - 1.54 2.27 -0.79
22-Jul-2017 23:00 - - - - - - - - - - - - 7.16 17.74 455.00 19.14 - - - - 8.43 15.29 1.10 -8.34 - - - - 7.51 18.56 323.00 10.17 - 141.89 40.65 - - - - - - - - - 1.54 2.28 -0.79
22-Jul-2017 22:45 - - - - - - - - - - - - 7.16 17.81 456.00 19.21 - - - - 8.42 15.33 0.90 -8.35 - - - - 7.50 18.64 323.00 10.17 - 141.89 41.82 - - - - - - - - - 1.54 2.28 -0.79
22-Jul-2017 22:30 - - - - - - - - - - - - 7.16 17.88 456.00 19.21 - - - - 8.42 15.37 1.00 -8.34 - - - - 7.50 18.72 324.00 10.24 - 141.89 41.82 - - - - - - - - - 1.54 2.28 -0.79
22-Jul-2017 22:15 - - - - - - - - - - - - 7.16 17.95 457.00 19.28 - - - - 8.42 15.39 1.00 -8.34 - - - - 7.51 18.80 324.00 10.24 - 144.66 43.02 - - - - - - - - - 1.54 2.29 -0.79
22-Jul-2017 22:00 - - - - - - - - - - - - 7.16 18.01 457.00 19.28 - - - - 8.41 15.40 1.40 -8.32 - - - - 7.51 18.88 325.00 10.30 - 147.47 43.02 - - - - - - - - - 1.55 2.29 -0.79
22-Jul-2017 21:45 - - - - - - - - - - - - 7.16 18.08 457.00 19.28 - - - - 8.41 15.40 1.10 -8.34 - - - - 7.51 18.96 325.00 10.30 - 150.30 41.82 - - - - - - - - - 1.55 2.29 -0.79
22-Jul-2017 21:30 - - - - - - - - - - - - 7.16 18.13 457.00 19.28 - - - - 8.41 15.41 3.40 -8.23 - - - - 7.51 19.04 324.00 10.24 - 153.16 43.02 - - - - - - - - - 1.54 2.29 -0.78
22-Jul-2017 21:15 - - - - - - - - - - - - 7.15 18.19 457.00 19.28 - - - - 8.45 15.43 28.20 -7.02 - - - - 7.51 19.13 325.00 10.30 - 156.06 43.02 - - - - - - - - - 1.55 2.29 -0.64
22-Jul-2017 21:00 - - - - - - - - - - - - 7.16 18.24 458.00 19.35 - - - - 8.40 15.48 7.20 -8.04 - - - - 7.51 19.23 325.00 10.30 - 158.98 43.02 - - - - - - - - - 1.55 2.30 -0.76
22-Jul-2017 20:45 - - - - - - - - - - - - 7.16 18.29 458.00 19.35 - - - - 8.42 15.55 0.70 -8.36 - - - - 7.51 19.35 324.00 10.24 - 158.98 39.50 - - - - - - - - - 1.54 2.30 -0.79
22-Jul-2017 20:30 - - - - - - - - - - - - 7.16 18.34 458.00 19.35 - - - - 8.43 15.63 0.70 -8.36 - - - - 7.51 19.47 324.00 10.24 - 158.98 38.38 - - - - - - - - - 1.54 2.30 -0.79
22-Jul-2017 20:15 - - - - - - - - - - - - 7.16 18.38 458.00 19.35 - - - - 8.44 15.74 0.70 -8.36 - - - - 7.51 19.60 323.00 10.17 - 161.94 39.50 - - - - - - - - - 1.54 2.30 -0.79
22-Jul-2017 20:00 - - - - - - - - - - - - 7.16 18.43 458.00 19.35 - - - - 8.45 15.84 0.90 -8.35 - - - - 7.51 19.74 323.00 10.17 - 161.94 40.65 - - - - - - - - - 1.54 2.30 -0.79
22-Jul-2017 19:45 - - - - - - - - - - - - 7.16 18.47 459.00 19.42 - - - - 8.48 15.94 6.90 -8.06 - - - - 7.50 19.88 323.00 10.17 - 167.95 41.82 - - - - - - - - - 1.54 2.30 -0.76
22-Jul-2017 19:30 - - - - - - - - - - - - 7.16 18.52 459.00 19.42 - - - - 8.44 16.02 3.50 -8.22 - - - - 7.50 20.02 324.00 10.24 - 171.00 44.24 - - - - - - - - - 1.54 2.30 -0.78
22-Jul-2017 19:15 - - - - - - - - - - - - 7.15 18.56 459.00 19.42 - - - - 8.46 16.10 234.00 2.98 - - - - 7.50 20.15 324.00 10.24 - 177.20 46.76 - - - - - - - - - 1.54 2.30 0.56
22-Jul-2017 19:00 - - - - - - - - - - - - 7.14 18.58 460.00 19.48 - - - - 8.46 16.21 234.00 2.98 - - - - 7.50 20.28 325.00 10.30 - 180.35 49.39 - - - - - - - - - 1.55 2.31 0.56
22-Jul-2017 18:45 - - - - - - - - - - - - 7.13 18.59 460.00 19.48 - - - - 8.47 16.35 231.00 2.84 - - - - 7.50 20.41 325.00 10.30 - 167.95 52.13 - - - - - - - - - 1.55 2.31 0.54
22-Jul-2017 18:30 - - - - - - - - - - - - 7.15 18.60 461.00 19.55 - - - - 8.48 16.50 231.00 2.84 - - - - 7.50 20.49 326.00 10.37 - 136.44 54.98 - - - - - - - - - 1.56 2.32 0.54
22-Jul-2017 18:15 - - - - - - - - - - - - 7.15 18.60 460.00 19.48 - - - - 8.49 16.60 232.00 2.88 - - - - 7.50 20.54 326.00 10.37 - 133.76 50.75 - - - - - - - - - 1.56 2.31 0.54
22-Jul-2017 18:00 - - - - - - - - - - - - 7.15 18.62 459.00 19.42 - - - - 8.48 16.71 230.00 2.79 - - - - 7.50 20.56 326.00 10.37 - 131.12 52.13 - - - - - - - - - 1.56 2.30 0.53
22-Jul-2017 17:45 - - - - - - - - - - - - 7.14 18.64 458.00 19.35 - - - - 8.48 16.77 235.00 3.03 - - - - 7.49 20.63 325.00 10.30 - 133.76 54.98 - - - - - - - - - 1.55 2.30 0.56
22-Jul-2017 17:30 - - - - - - - - - - - - 7.14 18.67 458.00 19.35 - - - - 8.48 16.78 240.00 3.27 - - - - 7.49 20.73 327.00 10.44 - 133.76 58.99 - - - - - - - - - 1.56 2.30 0.59
22-Jul-2017 17:15 - - - - - - - - - - - - 7.14 18.72 458.00 19.35 - - - - 8.50 16.86 245.00 3.52 - - - - 7.49 20.81 327.00 10.44 - 131.12 63.33 - - - - - - - - - 1.56 2.30 0.62
22-Jul-2017 17:00 - - - - - - - - - - - - 7.14 18.76 456.00 19.21 - - - - 8.52 16.95 249.00 3.71 - - - - 7.48 20.90 326.00 10.37 - 133.76 66.72 - - - - - - - - - 1.56 2.28 0.64
22-Jul-2017 16:45 - - - - - - - - - - - - 7.14 18.82 456.00 19.21 - - - - 8.55 17.04 249.00 3.71 - - - - 7.48 21.02 328.00 10.51 - 139.15 69.04 - - - - - - - - - 1.57 2.28 0.64
22-Jul-2017 16:30 - - - - - - - - - - - - 7.12 18.89 456.00 19.21 - - - - 8.56 17.14 249.00 3.71 - - - - 7.48 21.14 329.00 10.58 - 144.66 53.54 - - - - - - - - - 1.58 2.28 0.64
22-Jul-2017 16:15 - - - - - - - - - - - - 7.11 18.97 455.00 19.14 - - - - 8.54 17.21 0.90 -8.35 - - - - 7.47 21.26 330.00 10.64 - 139.15 34.12 - - - - - - - - - 1.58 2.28 -0.79
22-Jul-2017 16:00 - - - - - - - - - - - - 7.11 19.09 453.00 19.01 - - - - 8.37 16.90 0.90 -8.35 - - - - 7.47 21.38 330.00 10.64 - 125.91 28.40 - - - - - - - - - 1.58 2.26 -0.79
22-Jul-2017 15:45 - - - - - - - - - - - - 7.11 19.25 453.00 19.01 - - - - 8.24 16.71 0.70 -8.36 - - - - 7.46 21.53 330.00 10.64 - 120.82 25.01 - - - - - - - - - 1.58 2.26 -0.79
22-Jul-2017 15:30 - - - - - - - - - - - - 7.10 19.44 452.00 18.94 - - - - 8.26 16.65 0.70 -8.36 - - - - 7.46 21.74 331.00 10.71 - 120.82 25.01 - - - - - - - - - 1.59 2.26 -0.79
22-Jul-2017 15:15 - - - - - - - - - - - - 7.10 19.66 449.00 18.74 - - - - 8.26 16.69 0.70 -8.36 - - - - 7.45 21.98 332.00 10.78 - 120.82 25.01 - - - - - - - - - 1.59 2.24 -0.79
22-Jul-2017 15:00 - - - - - - - - - - - - 7.10 19.91 449.00 18.74 - - - - 8.28 16.79 0.70 -8.36 - - - - 7.45 22.17 332.00 10.78 - 123.35 25.01 - - - - - - - - - 1.59 2.24 -0.79
22-Jul-2017 14:45 - - - - - - - - - - - - 7.10 20.14 454.00 19.08 - - - - 8.35 17.04 0.90 -8.35 - - - - 7.44 22.42 332.00 10.78 - 120.82 25.83 - - - - - - - - - 1.59 2.27 -0.79
22-Jul-2017 14:30 - - - - - - - - - - - - 7.11 20.34 455.00 19.14 - - - - 8.54 17.03 0.70 -8.36 - - - - 7.44 22.66 333.00 10.85 - 118.33 27.53 - - - - - - - - - 1.60 2.28 -0.79
22-Jul-2017 14:15 - - - - - - - - - - - - 7.11 20.51 461.00 19.55 - - - - 8.57 16.82 0.70 -8.36 - - - - 7.44 22.93 335.00 10.98 - 115.86 30.22 - - - - - - - - - 1.61 2.32 -0.79
22-Jul-2017 14:00 - - - - - - - - - - - - 7.13 20.64 462.00 19.62 - - - - 8.60 16.91 0.60 -8.36 - - - - 7.43 23.16 336.00 11.05 - 113.42 31.16 - - - - - - - - - 1.62 2.32 -0.80
22-Jul-2017 13:45 - - - - - - - - - - - - 7.15 20.69 466.00 19.89 - - - - 7.79 17.17 0.60 -8.36 - - - - 7.43 23.32 337.00 11.12 - 115.86 30.22 - - - - - - - - - 1.63 2.35 -0.80
22-Jul-2017 13:30 - - - - - - - - - - - - 7.16 20.64 470.00 20.16 - - - - 8.15 18.06 0.10 -8.39 - - - - 7.43 23.45 337.00 11.12 - 113.42 25.83 - - - - - - - - - 1.63 2.38 -0.80
22-Jul-2017 13:15 - - - - - - - - - - - - 7.18 20.47 477.00 20.64 - - - - 8.48 19.43 0.00 -8.39 - - - - 7.44 23.53 338.00 11.19 - 115.86 25.01 - - - - - - - - - 1.63 2.42 -0.80
22-Jul-2017 13:00 - - - - - - - - - - - - - - - - - - - - 8.36 20.08 0.00 -8.39 - - - - 7.44 23.41 339.00 11.26 - - 25.01 - - - - - - - - - 1.64 - -0.80
22-Jul-2017 12:45 - - - - - - - - - - - - - - - - - - - - 8.43 20.56 0.00 -8.39 - - - - 7.44 23.07 339.00 11.26 - - 25.01 - - - - - - - - - 1.64 - -0.80
22-Jul-2017 12:30 - - - - - - - - - - - - - - - - - - - - 8.30 20.80 0.00 -8.39 - - - - 7.45 22.69 339.00 11.26 - - 25.01 - - - - - - - - - 1.64 - -0.80
22-Jul-2017 12:15 - - - - - - - - - - - - - - - - - - - - 8.43 20.41 0.10 -8.39 - - - - 7.45 22.32 338.00 11.19 - - 25.01 - - - - - - - - - 1.63 - -0.80
22-Jul-2017 12:00 - - - - - - - - - - - - - - - - - - - - 8.49 19.86 0.00 -8.39 - - - - 7.45 21.96 338.00 11.19 - - 25.01 - - - - - - - - - 1.63 - -0.80
22-Jul-2017 11:45 - - - - - - - - - - - - - - - - - - - - 8.49 19.26 0.00 -8.39 - - - - 7.46 21.60 337.00 11.12 - - 25.83 - - - - - - - - - 1.63 - -0.80
22-Jul-2017 11:30 - - - - - - - - - - - - - - - - - - - - 8.48 19.04 0.00 -8.39 - - - - 7.46 21.26 337.00 11.12 - - 25.83 - - - - - - - - - 1.63 - -0.80
22-Jul-2017 11:15 - - - - - - - - - - - - - - - - - - - - 8.34 19.22 0.00 -8.39 - - - - 7.46 20.90 336.00 11.05 - - 25.83 - - - - - - - - - 1.62 - -0.80
22-Jul-2017 11:00 - - - - - - - - - - - - 7.22 16.82 458.00 19.35 - - - - 8.55 18.98 0.00 -8.39 - - - - 7.46 20.60 336.00 11.05 - 115.86 25.83 - - - - - - - - - 1.62 2.30 -0.80
22-Jul-2017 10:45 - - - - - - - - - - - - 7.22 16.63 454.00 19.08 - - - - 8.54 18.94 0.00 -8.39 - - - - 7.46 20.29 336.00 11.05 - 115.86 25.01 - - - - - - - - - 1.62 2.27 -0.80
22-Jul-2017 10:30 - - - - - - - - - - - - 7.21 16.48 451.00 18.87 - - - - 8.68 18.61 0.00 -8.39 - - - - 7.46 19.96 335.00 10.98 - 115.86 25.83 - - - - - - - - - 1.61 2.25 -0.80
22-Jul-2017 10:15 - - - - - - - - - - - - 7.21 16.35 447.00 18.60 - - - - 8.71 18.69 0.00 -8.39 - - - - 7.46 19.63 335.00 10.98 - 115.86 25.01 - - - - - - - - - 1.61 2.23 -0.80
22-Jul-2017 10:00 - - - - - - - - - - - - 7.21 16.26 445.00 18.46 - - - - 8.70 18.75 0.00 -8.39 - - - - 7.46 19.32 333.00 10.85 - 113.42 25.01 - - - - - - - - - 1.60 2.21 -0.80
22-Jul-2017 09:45 - - - - - - - - - - - - 7.21 16.19 443.00 18.33 - - - - 8.86 18.82 0.00 -8.39 - - - - 7.45 19.03 333.00 10.85 - 113.42 25.83 - - - - - - - - - 1.60 2.20 -0.80
22-Jul-2017 09:30 - - - - - - - - - - - - 7.21 16.13 441.00 18.19 - - - - 8.72 19.53 0.10 -8.39 - - - - 7.45 18.76 332.00 10.78 - 113.42 25.83 - - - - - - - - - 1.59 2.19 -0.80
22-Jul-2017 09:15 - - - - - - - - - - - - 7.21 16.09 440.00 18.12 - - - - 8.55 20.57 0.00 -8.39 - - - - 7.45 18.53 331.00 10.71 - 113.42 25.01 - - - - - - - - - 1.59 2.18 -0.80
22-Jul-2017 09:00 - - - - - - - - - - - - 7.21 16.05 439.00 18.06 - - - - 8.55 19.87 0.00 -8.39 - - - - 7.45 18.33 331.00 10.71 - 113.42 25.01 - - - - - - - - - 1.59 2.17 -0.80
22-Jul-2017 08:45 - - - - - - - - - - - - 7.21 16.02 438.00 17.99 - - - - 8.23 21.19 0.00 -8.39 - - - - 7.45 18.16 330.00 10.64 - 113.42 25.83 - - - - - - - - - 1.58 2.17 -0.80
22-Jul-2017 08:30 - - - - - - - - - - - - 7.21 16.00 438.00 17.99 - - - - 7.83 20.86 0.00 -8.39 - - - - 7.45 18.01 329.00 10.58 - 113.42 25.01 - - - - - - - - - 1.58 2.17 -0.80
22-Jul-2017 08:15 - - - - - - - - - - - - 7.21 15.99 437.00 17.92 - - - - 7.86 19.21 0.00 -8.39 - - - - 7.44 17.87 329.00 10.58 - 111.01 25.83 - - - - - - - - - 1.58 2.16 -0.80
22-Jul-2017 08:00 - - - - - - - - - - - - 7.20 16.00 436.00 17.85 - - - - 7.90 19.03 0.10 -8.39 - - - - 7.45 17.76 328.00 10.51 - 111.01 25.01 - - - - - - - - - 1.57 2.15 -0.80
22-Jul-2017 07:45 - - - - - - - - - - - - 7.20 16.01 436.00 17.85 - - - - 7.69 17.78 0.00 -8.39 - - - - 7.45 17.68 328.00 10.51 - 111.01 25.83 - - - - - - - - - 1.57 2.15 -0.80
22-Jul-2017 07:30 - - - - - - - - - - - - 7.19 16.04 435.00 17.78 - - - - 7.73 16.59 0.00 -8.39 - - - - 7.45 17.64 326.00 10.37 - 111.01 25.01 - - - - - - - - - 1.56 2.15 -0.80
22-Jul-2017 07:15 - - - - - - - - - - - - 7.19 16.07 435.00 17.78 - - - - 7.93 15.57 0.00 -8.39 - - - - 7.45 17.64 326.00 10.37 - 111.01 25.01 - - - - - - - - - 1.56 2.15 -0.80
22-Jul-2017 07:00 - - - - - - - - - - - - 7.19 16.11 435.00 17.78 - - - - 7.98 14.02 0.00 -8.39 - - - - 7.45 17.64 325.00 10.30 - 111.01 25.01 - - - - - - - - - 1.55 2.15 -0.80
22-Jul-2017 06:45 - - - - - - - - - - - - 7.19 16.17 434.00 17.72 - - - - 7.99 13.61 0.00 -8.39 - - - - 7.45 17.63 326.00 10.37 - 111.01 25.01 - - - - - - - - - 1.56 2.14 -0.80
22-Jul-2017 06:30 - - - - - - - - - - - - 7.19 16.22 434.00 17.72 - - - - 7.93 13.68 0.10 -8.39 - - - - 7.45 17.70 326.00 10.37 - 111.01 24.21 - - - - - - - - - 1.56 2.14 -0.80
22-Jul-2017 06:15 - - - - - - - - - - - - 7.18 16.30 433.00 17.65 - - - - 7.90 13.77 0.00 -8.39 - - - - 7.44 17.78 323.00 10.17 - 111.01 25.01 - - - - - - - - - 1.54 2.13 -0.80
22-Jul-2017 06:00 - - - - - - - - - - - - 7.18 16.38 433.00 17.65 - - - - 7.89 13.82 0.00 -8.39 - - - - 7.44 17.88 324.00 10.24 - 111.01 24.21 - - - - - - - - - 1.54 2.13 -0.80
22-Jul-2017 05:45 - - - - - - - - - - - - 7.18 16.46 434.00 17.72 - - - - 7.85 13.92 0.00 -8.39 - - - - 7.44 17.98 325.00 10.30 - 111.01 24.21 - - - - - - - - - 1.55 2.14 -0.80
22-Jul-2017 05:30 - - - - - - - - - - - - 7.18 16.54 434.00 17.72 - - - - 7.82 13.98 0.00 -8.39 - - - - 7.43 18.08 324.00 10.24 - 111.01 24.21 - - - - - - - - - 1.54 2.14 -0.80
22-Jul-2017 05:15 - - - - - - - - - - - - 7.18 16.63 435.00 17.78 - - - - 7.81 14.10 0.00 -8.39 - - - - 7.43 18.19 325.00 10.30 - 108.63 24.21 - - - - - - - - - 1.55 2.15 -0.80
22-Jul-2017 05:00 - - - - - - - - - - - - 7.18 16.72 435.00 17.78 - - - - 7.78 14.20 0.00 -8.39 - - - - 7.43 18.30 324.00 10.24 - 108.63 25.01 - - - - - - - - - 1.54 2.15 -0.80
22-Jul-2017 04:45 - - - - - - - - - - - - 7.18 16.81 435.00 17.78 - - - - 7.75 14.28 0.00 -8.39 - - - - 7.43 18.41 325.00 10.30 - 108.63 24.21 - - - - - - - - - 1.55 2.15 -0.80
22-Jul-2017 04:30 - - - - - - - - - - - - 7.18 16.90 436.00 17.85 - - - - 7.66 14.48 0.00 -8.39 - - - - 7.43 18.52 325.00 10.30 - 108.63 24.21 - - - - - - - - - 1.55 2.15 -0.80
22-Jul-2017 04:15 - - - - - - - - - - - - 7.18 16.99 437.00 17.92 - - - - 7.68 14.60 0.00 -8.39 - - - - 7.43 18.64 325.00 10.30 - 108.63 24.21 - - - - - - - - - 1.55 2.16 -0.80
22-Jul-2017 04:00 - - - - - - - - - - - - 7.18 17.08 437.00 17.92 - - - - 7.61 14.80 0.00 -8.39 - - - - 7.43 18.75 323.00 10.17 - 108.63 24.21 - - - - - - - - - 1.54 2.16 -0.80
22-Jul-2017 03:45 - - - - - - - - - - - - 7.17 17.17 437.00 17.92 - - - - 7.50 14.85 0.00 -8.39 - - - - 7.43 18.78 323.00 10.17 - 108.63 24.21 - - - - - - - - - 1.54 2.16 -0.80
22-Jul-2017 03:30 - - - - - - - - - - - - 7.17 17.26 439.00 18.06 - - - - 7.54 15.08 0.00 -8.39 - - - - 7.43 18.80 324.00 10.24 - 108.63 24.21 - - - - - - - - - 1.54 2.17 -0.80
22-Jul-2017 03:15 - - - - - - - - - - - - 7.17 17.35 439.00 18.06 - - - - 7.53 15.49 0.00 -8.39 - - - - 7.44 18.87 325.00 10.30 - 108.63 24.21 - - - - - - - - - 1.55 2.17 -0.80
22-Jul-2017 03:00 - - - - - - - - - - - - 7.17 17.43 440.00 18.12 - - - - 7.50 15.78 0.00 -8.39 - - - - 7.44 18.98 324.00 10.24 - 108.63 23.43 - - - - - - - - - 1.54 2.18 -0.80
22-Jul-2017 02:45 - - - - - - - - - - - - 7.18 17.52 441.00 18.19 - - - - 7.46 15.97 0.00 -8.39 - - - - 7.45 19.07 325.00 10.30 - 108.63 23.43 - - - - - - - - - 1.55 2.19 -0.80
22-Jul-2017 02:30 - - - - - - - - - - - - 7.18 17.60 441.00 18.19 - - - - 7.45 16.16 0.00 -8.39 - - - - 7.45 19.17 324.00 10.24 - 106.28 24.21 - - - - - - - - - 1.54 2.19 -0.80
22-Jul-2017 02:15 - - - - - - - - - - - - 7.18 17.67 442.00 18.26 - - - - 7.43 16.44 0.10 -8.39 - - - - 7.45 19.26 323.00 10.17 - 108.63 23.43 - - - - - - - - - 1.54 2.19 -0.80
22-Jul-2017 02:00 - - - - - - - - - - - - 7.18 17.73 442.00 18.26 - - - - 7.38 16.64 0.00 -8.39 - - - - 7.45 19.37 322.00 10.10 - 106.28 23.43 - - - - - - - - - 1.53 2.19 -0.80
22-Jul-2017 01:45 - - - - - - - - - - - - 7.18 17.80 442.00 18.26 - - - - 7.38 16.80 0.00 -8.39 - - - - 7.46 19.40 323.00 10.17 - 106.28 23.43 - - - - - - - - - 1.54 2.19 -0.80
22-Jul-2017 01:30 - - - - - - - - - - - - 7.17 17.87 442.00 18.26 - - - - 7.33 16.84 0.00 -8.39 - - - - 7.46 19.45 322.00 10.10 - 106.28 23.43 - - - - - - - - - 1.53 2.19 -0.80
22-Jul-2017 01:15 - - - - - - - - - - - - 7.16 17.93 441.00 18.19 - - - - 7.19 16.89 0.10 -8.39 - - - - 7.46 19.53 322.00 10.10 - 106.28 23.43 - - - - - - - - - 1.53 2.19 -0.80
22-Jul-2017 01:00 - - - - - - - - - - - - 7.16 18.01 442.00 18.26 - - - - 7.32 17.03 0.00 -8.39 - - - - 7.46 19.71 323.00 10.17 - 106.28 22.67 - - - - - - - - - 1.54 2.19 -0.80
22-Jul-2017 00:45 - - - - - - - - - - - - 7.16 18.11 442.00 18.26 - - - - 7.29 17.13 0.00 -8.39 - - - - 7.47 19.83 322.00 10.10 - 106.28 23.43 - - - - - - - - - 1.53 2.19 -0.80
22-Jul-2017 00:30 - - - - - - - - - - - - 7.15 18.22 443.00 18.33 - - - - 7.28 17.25 0.00 -8.39 - - - - 7.47 19.96 323.00 10.17 - 106.28 22.67 - - - - - - - - - 1.54 2.20 -0.80
22-Jul-2017 00:15 - - - - - - - - - - - - 7.14 18.34 443.00 18.33 - - - - 7.29 17.29 0.00 -8.39 - - - - 7.47 20.09 321.00 10.03 - 106.28 22.67 - - - - - - - - - 1.53 2.20 -0.80
22-Jul-2017 00:00 - - - - - - - - - - - - 7.15 18.46 444.00 18.40 - - - - 7.33 17.45 0.00 -8.39 - - - - 7.47 20.23 320.00 9.96 - 106.28 21.93 - - - - - - - - - 1.52 2.21 -0.80
21-Jul-2017 23:45 - - - - - - - - - - - - 7.14 18.59 445.00 18.46 - - - - 7.43 17.50 0.00 -8.39 - - - - 7.47 20.42 321.00 10.03 - 106.28 21.93 - - - - - - - - - 1.53 2.21 -0.80
21-Jul-2017 23:30 - - - - - - - - - - - - 7.14 18.71 446.00 18.53 - - - - 7.32 17.67 0.10 -8.39 - - - - 7.47 20.63 320.00 9.96 - 106.28 21.93 - - - - - - - - - 1.52 2.22 -0.80
21-Jul-2017 23:15 - - - - - - - - - - - - 7.14 18.84 446.00 18.53 - - - - 7.28 17.80 0.00 -8.39 - - - - 7.48 20.82 321.00 10.03 - 106.28 21.93 - - - - - - - - - 1.53 2.22 -0.80
21-Jul-2017 23:00 - - - - - - - - - - - - 7.14 18.98 447.00 18.60 - - - - 7.22 18.01 0.00 -8.39 - - - - 7.48 21.05 321.00 10.03 - 106.28 21.93 - - - - - - - - - 1.53 2.23 -0.80
21-Jul-2017 22:45 - - - - - - - - - - - - 7.14 19.13 448.00 18.67 - - - - 7.23 18.07 0.00 -8.39 - - - - 7.48 21.16 320.00 9.96 - 106.28 21.93 - - - - - - - - - 1.52 2.23 -0.80
21-Jul-2017 22:30 - - - - - - - - - - - - 7.13 19.29 448.00 18.67 - - - - 7.23 18.24 0.00 -8.39 - - - - 7.48 21.26 320.00 9.96 - 106.28 21.21 - - - - - - - - - 1.52 2.23 -0.80
21-Jul-2017 22:15 - - - - - - - - - - - - 7.13 19.45 449.00 18.74 - - - - 7.20 18.50 0.00 -8.39 - - - - 7.48 21.36 319.00 9.90 - 106.28 21.21 - - - - - - - - - 1.51 2.24 -0.80
21-Jul-2017 22:00 - - - - - - - - - - - - 7.13 19.61 450.00 18.80 - - - - 7.16 18.69 0.00 -8.39 - - - - 7.47 21.47 319.00 9.90 - 108.63 21.21 - - - - - - - - - 1.51 2.25 -0.80
21-Jul-2017 21:45 - - - - - - - - - - - - 7.12 19.77 451.00 18.87 - - - - 7.13 18.96 0.00 -8.39 - - - - 7.47 21.59 317.00 9.76 - 108.63 21.21 - - - - - - - - - 1.50 2.25 -0.80
21-Jul-2017 21:30 - - - - - - - - - - - - 7.12 19.93 452.00 18.94 - - - - 7.17 19.35 0.10 -8.39 - - - - 7.47 21.73 317.00 9.76 - 108.63 21.21 - - - - - - - - - 1.50 2.26 -0.80
21-Jul-2017 21:15 - - - - - - - - - - - - 7.13 20.09 454.00 19.08 - - - - 7.22 19.68 0.00 -8.39 - - - - 7.47 21.89 318.00 9.83 - 108.63 21.21 - - - - - - - - - 1.51 2.27 -0.80
21-Jul-2017 21:00 - - - - - - - - - - - - 7.12 20.23 455.00 19.14 - - - - 7.15 20.20 0.00 -8.39 - - - - 7.47 22.05 317.00 9.76 - 108.63 21.93 - - - - - - - - - 1.50 2.28 -0.80
21-Jul-2017 20:45 - - - - - - - - - - - - 7.12 20.36 457.00 19.28 - - - - 7.44 20.47 0.00 -8.39 - - - - 7.46 22.23 318.00 9.83 - 108.63 21.21 - - - - - - - - - 1.51 2.29 -0.80
21-Jul-2017 20:30 - - - - - - - - - - - - 7.12 20.49 458.00 19.35 - - - - 7.26 21.07 0.00 -8.39 - - - - 7.46 22.42 318.00 9.83 - 111.01 21.93 - - - - - - - - - 1.51 2.30 -0.80
21-Jul-2017 20:15 - - - - - - - - - - - - 7.12 20.61 458.00 19.35 - - - - 7.43 21.48 0.00 -8.39 - - - - 7.46 22.60 318.00 9.83 - 111.01 21.93 - - - - - - - - - 1.51 2.30 -0.80
21-Jul-2017 20:00 - - - - - - - - - - - - 7.12 20.71 461.00 19.55 - - - - 7.58 21.81 0.00 -8.39 - - - - 7.46 22.80 319.00 9.90 - 111.01 21.93 - - - - - - - - - 1.51 2.32 -0.80
21-Jul-2017 19:45 - - - - - - - - - - - - 7.12 20.81 462.00 19.62 - - - - 7.50 22.39 0.00 -8.39 - - - - 7.45 23.01 319.00 9.90 - 111.01 21.93 - - - - - - - - - 1.51 2.32 -0.80
21-Jul-2017 19:30 - - - - - - - - - - - - 7.12 20.90 464.00 19.76 - - - - 7.68 22.83 0.10 -8.39 - - - - 7.45 23.20 320.00 9.96 - 111.01 21.93 - - - - - - - - - 1.52 2.34 -0.80
21-Jul-2017 19:15 - - - - - - - - - - - - 7.12 20.98 466.00 19.89 - - - - 7.85 23.07 0.00 -8.39 - - - - 7.45 23.40 321.00 10.03 - 111.01 21.93 - - - - - - - - - 1.53 2.35 -0.80
21-Jul-2017 19:00 - - - - - - - - - - - - - - - - - - - - 8.19 23.21 0.00 -8.39 - - - - 7.45 23.56 322.00 10.10 - - 21.93 - - - - - - - - - 1.53 - -0.80
21-Jul-2017 18:45 - - - - - - - - - - - - - - - - - - - - 8.15 23.80 0.00 -8.39 - - - - 7.45 23.72 323.00 10.17 - - 22.67 - - - - - - - - - 1.54 - -0.80
21-Jul-2017 18:30 - - - - - - - - - - - - - - - - - - - - 8.20 24.07 0.10 -8.39 - - - - 7.45 23.84 323.00 10.17 - - 22.67 - - - - - - - - - 1.54 - -0.80
21-Jul-2017 18:15 - - - - - - - - - - - - - - - - - - - - 8.30 24.37 0.00 -8.39 - - - - 7.45 23.90 325.00 10.30 - - 22.67 - - - - - - - - - 1.55 - -0.80
21-Jul-2017 18:00 - - - - - - - - - - - - 7.12 21.26 474.00 20.44 - - - - 8.23 25.02 0.00 -8.39 - - - - 7.45 23.92 325.00 10.30 - 113.42 22.67 - - - - - - - - - 1.55 2.40 -0.80
21-Jul-2017 17:45 - - - - - - - - - - - - 7.12 21.24 475.00 20.50 - - - - 8.28 25.02 0.00 -8.39 - - - - 7.46 23.91 326.00 10.37 - 113.42 23.43 - - - - - - - - - 1.56 2.41 -0.80
21-Jul-2017 17:30 - - - - - - - - - - - - 7.13 21.19 477.00 20.64 - - - - 8.33 24.31 0.00 -8.39 - - - - 7.46 23.89 327.00 10.44 - 115.86 23.43 - - - - - - - - - 1.56 2.42 -0.80
21-Jul-2017 17:15 - - - - - - - - - - - - 7.13 21.06 479.00 20.78 - - - - 8.36 24.69 0.00 -8.39 - - - - 7.46 23.85 329.00 10.58 - 115.86 23.43 - - - - - - - - - 1.58 2.44 -0.80
21-Jul-2017 17:00 - - - - - - - - - - - - 7.13 20.88 481.00 20.91 - - - - 8.25 25.09 0.00 -8.39 - - - - 7.47 23.76 330.00 10.64 - 115.86 23.43 - - - - - - - - - 1.58 2.45 -0.80
21-Jul-2017 16:45 - - - - - - - - - - - - 7.14 20.67 480.00 20.84 - - - - 8.18 24.97 0.00 -8.39 - - - - 7.47 23.59 331.00 10.71 - 115.86 23.43 - - - - - - - - - 1.59 2.44 -0.80
21-Jul-2017 16:30 - - - - - - - - - - - - 7.14 20.46 478.00 20.71 - - - - 8.39 24.57 0.00 -8.39 - - - - 7.48 23.39 332.00 10.78 - 115.86 23.43 - - - - - - - - - 1.59 2.43 -0.80
21-Jul-2017 16:15 - - - - - - - - - - - - 7.14 20.26 477.00 20.64 - - - - 8.49 24.98 0.00 -8.39 - - - - 7.48 23.15 332.00 10.78 - 115.86 24.21 - - - - - - - - - 1.59 2.42 -0.80
21-Jul-2017 16:00 - - - - - - - - - - - - - - - - - - - - 8.37 24.14 0.00 -8.39 - - - - 7.48 22.90 333.00 10.85 - - 24.21 - - - - - - - - - 1.60 - -0.80
21-Jul-2017 15:45 - - - - - - - - - - - - - - - - - - - - 8.39 24.51 0.00 -8.39 - - - - 7.48 22.64 332.00 10.78 - - 24.21 - - - - - - - - - 1.59 - -0.80
21-Jul-2017 15:30 - - - - - - - - - - - - - - - - - - - - 8.48 24.49 0.00 -8.39 - - - - 7.49 22.48 332.00 10.78 - - 24.21 - - - - - - - - - 1.59 - -0.80
21-Jul-2017 15:15 - - - - - - - - - - - - - - - - - - - - 8.60 23.45 0.00 -8.39 - - - - 7.49 22.42 330.00 10.64 - - 25.01 - - - - - - - - - 1.58 - -0.80
21-Jul-2017 15:00 - - - - - - - - - - - - - - - - - - - - 8.41 24.09 0.00 -8.39 - - - - 7.48 22.42 331.00 10.71 - - 25.01 - - - - - - - - - 1.59 - -0.80
21-Jul-2017 14:45 - - - - - - - - - - - - - - - - - - - - 8.54 23.68 0.00 -8.39 - - - - 7.48 22.44 330.00 10.64 - - 25.01 - - - - - - - - - 1.58 - -0.80
21-Jul-2017 14:30 - - - - - - - - - - - - - - - - - - - - 8.62 23.27 0.00 -8.39 - - - - 7.48 22.45 330.00 10.64 - - 25.01 - - - - - - - - - 1.58 - -0.80
21-Jul-2017 14:15 - - - - - - - - - - - - - - - - - - - - 8.84 23.23 0.10 -8.39 - - - - 7.48 22.51 330.00 10.64 - - 25.01 - - - - - - - - - 1.58 - -0.80
21-Jul-2017 14:00 - - - - - - - - - - - - - - - - - - - - 9.07 23.58 0.00 -8.39 - - - - 7.48 22.54 331.00 10.71 - - 25.01 - - - - - - - - - 1.59 - -0.80
21-Jul-2017 13:45 - - - - - - - - - - - - - - - - - - - - 8.87 23.10 0.00 -8.39 - - - - 7.49 22.51 331.00 10.71 - - 25.83 - - - - - - - - - 1.59 - -0.80
21-Jul-2017 13:30 - - - - - - - - - - - - - - - - - - - - 9.11 23.12 0.00 -8.39 - - - - 7.49 22.44 331.00 10.71 - - 25.83 - - - - - - - - - 1.59 - -0.80
21-Jul-2017 13:15 - - - - - - - - - - - - - - - - - - - - 9.20 22.63 0.00 -8.39 - - - - 7.49 22.28 332.00 10.78 - - 25.83 - - - - - - - - - 1.59 - -0.80
21-Jul-2017 13:00 - - - - - - - - - - - - 7.20 19.70 482.00 20.98 - - - - 9.01 21.50 0.00 -8.39 - - - - 7.49 22.02 331.00 10.71 - 120.82 25.83 - - - - - - - - - 1.59 2.46 -0.80
21-Jul-2017 12:45 - - - - - - - - - - - - 7.21 19.27 482.00 20.98 - - - - 8.95 20.11 0.00 -8.39 - - - - 7.49 21.84 331.00 10.71 - 120.82 25.83 - - - - - - - - - 1.59 2.46 -0.80
21-Jul-2017 12:30 - - - - - - - - - - - - 7.21 18.87 480.00 20.84 - - - - 8.60 19.87 0.00 -8.39 - - - - 7.50 21.55 330.00 10.64 - 120.82 25.83 - - - - - - - - - 1.58 2.44 -0.80
21-Jul-2017 12:15 - - - - - - - - - - - - 7.20 18.46 480.00 20.84 - - - - 8.54 19.46 0.00 -8.39 - - - - 7.49 21.52 330.00 10.64 - 123.35 26.67 - - - - - - - - - 1.58 2.44 -0.80
21-Jul-2017 12:00 - - - - - - - - - - - - 7.20 18.03 478.00 20.71 - - - - 9.09 19.43 0.00 -8.39 - - - - 7.49 21.39 329.00 10.58 - 123.35 26.67 - - - - - - - - - 1.58 2.43 -0.80
21-Jul-2017 11:45 - - - - - - - - - - - - 7.20 17.62 474.00 20.44 - - - - 9.26 19.11 0.00 -8.39 - - - - 7.50 21.31 330.00 10.64 - 123.35 27.53 - - - - - - - - - 1.58 2.40 -0.80
21-Jul-2017 11:30 - - - - - - - - - - - - 7.21 17.28 467.00 19.96 - - - - 8.96 18.91 0.10 -8.39 - - - - 7.51 20.96 330.00 10.64 - 123.35 27.53 - - - - - - - - - 1.58 2.36 -0.80
21-Jul-2017 11:15 - - - - - - - - - - - - 7.22 17.00 463.00 19.69 - - - - 9.30 18.94 0.00 -8.39 - - - - 7.51 20.57 329.00 10.58 - 123.35 27.53 - - - - - - - - - 1.58 2.33 -0.80
21-Jul-2017 11:00 - - - - - - - - - - - - 7.22 16.75 459.00 19.42 - - - - 9.41 18.96 0.10 -8.39 - - - - 7.51 20.19 329.00 10.58 - 123.35 27.53 - - - - - - - - - 1.58 2.30 -0.80
21-Jul-2017 10:45 - - - - - - - - - - - - 7.23 16.55 453.00 19.01 - - - - 9.54 19.16 0.00 -8.39 - - - - 7.52 19.83 328.00 10.51 - 120.82 27.53 - - - - - - - - - 1.57 2.26 -0.80
21-Jul-2017 10:30 - - - - - - - - - - - - 7.23 16.39 449.00 18.74 - - - - 9.30 19.22 0.10 -8.39 - - - - 7.52 19.49 327.00 10.44 - 120.82 27.53 - - - - - - - - - 1.56 2.24 -0.80
21-Jul-2017 10:15 - - - - - - - - - - - - 7.24 16.25 448.00 18.67 - - - - 9.43 18.65 0.00 -8.39 - - - - 7.52 19.15 326.00 10.37 - 120.82 27.53 - - - - - - - - - 1.56 2.23 -0.80
21-Jul-2017 10:00 - - - - - - - - - - - - - - - - - - - - 9.18 18.90 0.00 -8.39 - - - - 7.52 18.82 325.00 10.30 - - 27.53 - - - - - - - - - 1.55 - -0.80
21-Jul-2017 09:45 - - - - - - - - - - - - - - - - - - - - 9.23 19.24 0.00 -8.39 - - - - 7.53 18.52 325.00 10.30 - - 26.67 - - - - - - - - - 1.55 - -0.80
21-Jul-2017 09:30 - - - - - - - - - - - - - - - - - - - - 9.03 19.92 0.00 -8.39 - - - - 7.52 18.24 323.00 10.17 - - 27.53 - - - - - - - - - 1.54 - -0.80
21-Jul-2017 09:15 - - - - - - - - - - - - - - - - - - - - 8.84 19.95 0.10 -8.39 - - - - 7.52 17.99 324.00 10.24 - - 26.67 - - - - - - - - - 1.54 - -0.80
21-Jul-2017 09:00 - - - - - - - - - - - - 7.24 15.93 437.00 17.92 - - - - 8.77 19.30 0.00 -8.39 - - - - 7.52 17.77 323.00 10.17 - 120.82 26.67 - - - - - - - - - 1.54 2.16 -0.80
21-Jul-2017 08:45 - - - - - - - - - - - - 7.25 15.91 437.00 17.92 - - - - 8.75 20.12 0.00 -8.39 - - - - 7.52 17.60 322.00 10.10 - 118.33 26.67 - - - - - - - - - 1.53 2.16 -0.80
21-Jul-2017 08:30 - - - - - - - - - - - - 7.24 15.89 437.00 17.92 - - - - 8.63 19.49 0.00 -8.39 - - - - 7.52 17.48 322.00 10.10 - 118.33 26.67 - - - - - - - - - 1.53 2.16 -0.80
21-Jul-2017 08:15 - - - - - - - - - - - - 7.24 15.89 437.00 17.92 - - - - 8.61 18.36 0.00 -8.39 - - - - 7.51 17.38 322.00 10.10 - 118.33 26.67 - - - - - - - - - 1.53 2.16 -0.80
21-Jul-2017 08:00 - - - - - - - - - - - - 7.24 15.89 436.00 17.85 - - - - 8.57 17.07 0.10 -8.39 - - - - 7.51 17.30 322.00 10.10 - 118.33 26.67 - - - - - - - - - 1.53 2.15 -0.80
21-Jul-2017 07:45 - - - - - - - - - - - - 7.24 15.90 437.00 17.92 - - - - 8.59 15.98 0.10 -8.39 - - - - 7.50 17.24 323.00 10.17 - 118.33 26.67 - - - - - - - - - 1.54 2.16 -0.80
21-Jul-2017 07:30 - - - - - - - - - - - - 7.24 15.92 437.00 17.92 - - - - 8.53 15.36 0.10 -8.39 - - - - 7.49 17.22 323.00 10.17 - 118.33 26.67 - - - - - - - - - 1.54 2.16 -0.80
21-Jul-2017 07:15 - - - - - - - - - - - - 7.24 15.95 437.00 17.92 - - - - 8.50 14.59 0.20 -8.38 - - - - 7.49 17.22 322.00 10.10 - 118.33 26.67 - - - - - - - - - 1.53 2.16 -0.80
21-Jul-2017 07:00 - - - - - - - - - - - - 7.24 15.99 438.00 17.99 - - - - 8.53 13.13 0.10 -8.39 - - - - 7.49 17.26 323.00 10.17 - 118.33 25.83 - - - - - - - - - 1.54 2.17 -0.80
21-Jul-2017 06:45 - - - - - - - - - - - - 7.24 16.04 438.00 17.99 - - - - 8.53 12.94 0.00 -8.39 - - - - 7.49 17.32 323.00 10.17 - 115.86 26.67 - - - - - - - - - 1.54 2.17 -0.80
21-Jul-2017 06:30 - - - - - - - - - - - - 7.24 16.09 438.00 17.99 - - - - 8.48 13.02 0.10 -8.39 - - - - 7.49 17.41 324.00 10.24 - 115.86 25.83 - - - - - - - - - 1.54 2.17 -0.80
21-Jul-2017 06:15 - - - - - - - - - - - - 7.23 16.16 439.00 18.06 - - - - 8.47 13.06 0.10 -8.39 - - - - 7.49 17.49 324.00 10.24 - 115.86 26.67 - - - - - - - - - 1.54 2.17 -0.80
21-Jul-2017 06:00 - - - - - - - - - - - - 7.23 16.23 440.00 18.12 - - - - 8.49 13.26 0.10 -8.39 - - - - 7.50 17.59 324.00 10.24 - 115.86 25.83 - - - - - - - - - 1.54 2.18 -0.80
21-Jul-2017 05:45 - - - - - - - - - - - - 7.23 16.31 441.00 18.19 - - - - 8.46 13.36 0.00 -8.39 - - - - 7.50 17.69 324.00 10.24 - 115.86 25.83 - - - - - - - - - 1.54 2.19 -0.80
21-Jul-2017 05:30 - - - - - - - - - - - - 7.23 16.39 443.00 18.33 - - - - 8.46 13.49 0.00 -8.39 - - - - 7.50 17.80 324.00 10.24 - 115.86 25.83 - - - - - - - - - 1.54 2.20 -0.80
21-Jul-2017 05:15 - - - - - - - - - - - - 7.23 16.46 444.00 18.40 - - - - 8.46 13.62 0.00 -8.39 - - - - 7.50 17.91 324.00 10.24 - 115.86 25.83 - - - - - - - - - 1.54 2.21 -0.80
21-Jul-2017 05:00 - - - - - - - - - - - - 7.23 16.54 444.00 18.40 - - - - 8.45 13.74 0.00 -8.39 - - - - 7.50 18.02 323.00 10.17 - 115.86 25.83 - - - - - - - - - 1.54 2.21 -0.80
21-Jul-2017 04:45 - - - - - - - - - - - - 7.23 16.62 446.00 18.53 - - - - 8.37 13.78 0.00 -8.39 - - - - 7.50 18.12 323.00 10.17 - 115.86 25.83 - - - - - - - - - 1.54 2.22 -0.80
21-Jul-2017 04:30 - - - - - - - - - - - - 7.23 16.70 447.00 18.60 - - - - 8.48 13.98 0.10 -8.39 - - - - 7.50 18.23 321.00 10.03 - 113.42 25.83 - - - - - - - - - 1.53 2.23 -0.80
21-Jul-2017 04:15 - - - - - - - - - - - - 7.23 16.78 449.00 18.74 - - - - 8.34 14.06 0.00 -8.39 - - - - 7.50 18.32 320.00 9.96 - 113.42 25.01 - - - - - - - - - 1.52 2.24 -0.80
21-Jul-2017 04:00 - - - - - - - - - - - - 7.22 16.87 449.00 18.74 - - - - 8.34 14.20 0.00 -8.39 - - - - 7.50 18.40 319.00 9.90 - 113.42 25.83 - - - - - - - - - 1.51 2.24 -0.80
21-Jul-2017 03:45 - - - - - - - - - - - - 7.22 16.96 450.00 18.80 - - - - 8.34 14.38 0.00 -8.39 - - - - 7.50 18.52 318.00 9.83 - 113.42 25.01 - - - - - - - - - 1.51 2.25 -0.80
21-Jul-2017 03:30 - - - - - - - - - - - - 7.22 17.06 451.00 18.87 - - - - 8.34 14.56 0.00 -8.39 - - - - 7.50 18.63 318.00 9.83 - 113.42 25.01 - - - - - - - - - 1.51 2.25 -0.80
21-Jul-2017 03:15 - - - - - - - - - - - - 7.22 17.16 452.00 18.94 - - - - 8.33 14.67 0.00 -8.39 - - - - 7.50 18.75 318.00 9.83 - 111.01 25.01 - - - - - - - - - 1.51 2.26 -0.80
21-Jul-2017 03:00 - - - - - - - - - - - - 7.22 17.27 452.00 18.94 - - - - 8.34 14.68 0.00 -8.39 - - - - 7.50 18.89 317.00 9.76 - 111.01 25.01 - - - - - - - - - 1.50 2.26 -0.80
21-Jul-2017 02:45 - - - - - - - - - - - - 7.22 17.38 453.00 19.01 - - - - 8.31 14.81 0.10 -8.39 - - - - 7.50 19.04 317.00 9.76 - 111.01 25.01 - - - - - - - - - 1.50 2.26 -0.80
21-Jul-2017 02:30 - - - - - - - - - - - - 7.21 17.48 453.00 19.01 - - - - 8.30 15.10 0.00 -8.39 - - - - 7.50 19.19 316.00 9.69 - 111.01 25.01 - - - - - - - - - 1.49 2.26 -0.80
21-Jul-2017 02:15 - - - - - - - - - - - - 7.21 17.59 453.00 19.01 - - - - 8.29 15.25 0.00 -8.39 - - - - 7.49 19.35 317.00 9.76 - 111.01 25.01 - - - - - - - - - 1.50 2.26 -0.80
21-Jul-2017 02:00 - - - - - - - - - - - - 7.21 17.70 454.00 19.08 - - - - 8.26 15.22 0.00 -8.39 - - - - 7.49 19.51 314.00 9.56 - 111.01 25.01 - - - - - - - - - 1.48 2.27 -0.80
21-Jul-2017 01:45 - - - - - - - - - - - - 7.21 17.82 454.00 19.08 - - - - 8.23 15.43 0.00 -8.39 - - - - 7.49 19.68 315.00 9.62 - 111.01 24.21 - - - - - - - - - 1.49 2.27 -0.80
21-Jul-2017 01:30 - - - - - - - - - - - - 7.21 17.93 454.00 19.08 - - - - 8.19 15.69 0.00 -8.39 - - - - 7.48 19.87 314.00 9.56 - 111.01 25.01 - - - - - - - - - 1.48 2.27 -0.80
21-Jul-2017 01:15 - - - - - - - - - - - - 7.21 18.05 453.00 19.01 - - - - 8.13 15.78 0.00 -8.39 - - - - 7.48 20.05 313.00 9.49 - 111.01 24.21 - - - - - - - - - 1.48 2.26 -0.80
21-Jul-2017 01:00 - - - - - - - - - - - - 7.20 18.17 453.00 19.01 - - - - 8.14 15.82 0.00 -8.39 - - - - 7.48 20.24 312.00 9.42 - 111.01 24.21 - - - - - - - - - 1.47 2.26 -0.80
21-Jul-2017 00:45 - - - - - - - - - - - - 7.20 18.30 455.00 19.14 - - - - 8.07 16.14 0.00 -8.39 - - - - 7.47 20.44 313.00 9.49 - 108.63 24.21 - - - - - - - - - 1.48 2.28 -0.80
21-Jul-2017 00:30 - - - - - - - - - - - - 7.20 18.43 456.00 19.21 - - - - 7.97 16.36 0.00 -8.39 - - - - 7.47 20.61 313.00 9.49 - 108.63 23.43 - - - - - - - - - 1.48 2.28 -0.80
21-Jul-2017 00:15 - - - - - - - - - - - - 7.20 18.55 458.00 19.35 - - - - 7.90 16.39 0.00 -8.39 - - - - 7.47 20.78 313.00 9.49 - 111.01 23.43 - - - - - - - - - 1.48 2.30 -0.80
21-Jul-2017 00:00 - - - - - - - - - - - - 7.20 18.68 459.00 19.42 - - - - 7.87 16.71 0.00 -8.39 - - - - 7.47 20.93 312.00 9.42 - 111.01 23.43 - - - - - - - - - 1.47 2.30 -0.80
20-Jul-2017 23:45 - - - - - - - - - - - - 7.20 18.80 461.00 19.55 - - - - 7.72 16.54 0.00 -8.39 - - - - 7.46 21.08 312.00 9.42 - 111.01 22.67 - - - - - - - - - 1.47 2.32 -0.80
20-Jul-2017 23:30 - - - - - - - - - - - - 7.19 18.92 463.00 19.69 - - - - 7.70 16.73 0.10 -8.39 - - - - 7.46 21.22 313.00 9.49 - 111.01 22.67 - - - - - - - - - 1.48 2.33 -0.80
20-Jul-2017 23:15 - - - - - - - - - - - - 7.19 19.05 465.00 19.82 - - - - 7.66 17.04 0.10 -8.39 - - - - 7.46 21.36 312.00 9.42 - 111.01 22.67 - - - - - - - - - 1.47 2.34 -0.80
20-Jul-2017 23:00 - - - - - - - - - - - - 7.19 19.18 466.00 19.89 - - - - 7.81 17.09 0.00 -8.39 - - - - 7.46 21.51 313.00 9.49 - 111.01 22.67 - - - - - - - - - 1.48 2.35 -0.80
20-Jul-2017 22:45 - - - - - - - - - - - - 7.19 19.31 467.00 19.96 - - - - 7.70 17.49 0.10 -8.39 - - - - 7.46 21.68 314.00 9.56 - 111.01 22.67 - - - - - - - - - 1.48 2.36 -0.80
20-Jul-2017 22:30 - - - - - - - - - - - - 7.19 19.45 468.00 20.03 - - - - 7.89 17.55 0.10 -8.39 - - - - 7.46 21.86 314.00 9.56 - 111.01 23.43 - - - - - - - - - 1.48 2.36 -0.80
20-Jul-2017 22:15 - - - - - - - - - - - - 7.18 19.60 470.00 20.16 - - - - 7.80 17.84 0.00 -8.39 - - - - 7.46 22.06 314.00 9.56 - 111.01 23.43 - - - - - - - - - 1.48 2.38 -0.80
20-Jul-2017 22:00 - - - - - - - - - - - - 7.18 19.75 471.00 20.23 - - - - 7.68 18.24 0.10 -8.39 - - - - 7.46 22.28 315.00 9.62 - 113.42 23.43 - - - - - - - - - 1.49 2.38 -0.80
20-Jul-2017 21:45 - - - - - - - - - - - - 7.18 19.91 472.00 20.30 - - - - 7.68 18.55 0.00 -8.39 - - - - 7.46 22.50 316.00 9.69 - 113.42 22.67 - - - - - - - - - 1.49 2.39 -0.80
20-Jul-2017 21:30 - - - - - - - - - - - - 7.18 20.07 472.00 20.30 - - - - 7.63 19.12 0.00 -8.39 - - - - 7.46 22.73 316.00 9.69 - 113.42 23.43 - - - - - - - - - 1.49 2.39 -0.80
20-Jul-2017 21:15 - - - - - - - - - - - - 7.18 20.23 473.00 20.37 - - - - 7.63 19.50 0.00 -8.39 - - - - 7.45 22.96 316.00 9.69 - 113.42 22.67 - - - - - - - - - 1.49 2.40 -0.80
20-Jul-2017 21:00 - - - - - - - - - - - - 7.17 20.40 474.00 20.44 - - - - 7.47 20.15 0.00 -8.39 - - - - 7.45 23.19 316.00 9.69 - 115.86 23.43 - - - - - - - - - 1.49 2.40 -0.80
20-Jul-2017 20:45 - - - - - - - - - - - - 7.17 20.56 475.00 20.50 - - - - 7.37 20.63 0.00 -8.39 - - - - 7.45 23.42 317.00 9.76 - 115.86 23.43 - - - - - - - - - 1.50 2.41 -0.80
20-Jul-2017 20:30 - - - - - - - - - - - - 7.17 20.72 476.00 20.57 - - - - 7.50 20.85 0.10 -8.39 - - - - 7.45 23.65 317.00 9.76 - 115.86 23.43 - - - - - - - - - 1.50 2.42 -0.80
20-Jul-2017 20:15 - - - - - - - - - - - - 7.17 20.87 478.00 20.71 - - - - 7.49 21.44 0.00 -8.39 - - - - 7.44 23.89 318.00 9.83 - 115.86 23.43 - - - - - - - - - 1.51 2.43 -0.80
20-Jul-2017 20:00 - - - - - - - - - - - - 7.17 21.02 479.00 20.78 - - - - 7.60 21.90 0.00 -8.39 - - - - 7.44 24.12 319.00 9.90 - 115.86 24.21 - - - - - - - - - 1.51 2.44 -0.80
20-Jul-2017 19:45 - - - - - - - - - - - - 7.16 21.16 480.00 20.84 - - - - 7.76 22.47 0.00 -8.39 - - - - 7.44 24.37 320.00 9.96 - 118.33 24.21 - - - - - - - - - 1.52 2.44 -0.80
20-Jul-2017 19:30 - - - - - - - - - - - - 7.16 21.30 481.00 20.91 - - - - 8.14 22.95 0.00 -8.39 - - - - 7.43 24.60 319.00 9.90 - 118.33 24.21 - - - - - - - - - 1.51 2.45 -0.80
20-Jul-2017 19:15 - - - - - - - - - - - - 7.15 21.44 482.00 20.98 - - - - 8.58 23.39 0.00 -8.39 - - - - 7.43 24.85 321.00 10.03 - 118.33 25.01 - - - - - - - - - 1.53 2.46 -0.80
20-Jul-2017 19:00 - - - - - - - - - - - - 7.15 21.57 484.00 21.12 - - - - 8.63 24.07 0.00 -8.39 - - - - 7.43 25.05 322.00 10.10 - 118.33 25.01 - - - - - - - - - 1.53 2.47 -0.80
20-Jul-2017 18:45 - - - - - - - - - - - - 7.15 21.71 485.00 21.18 - - - - 8.82 24.70 0.00 -8.39 - - - - 7.43 25.20 322.00 10.10 - 120.82 25.01 - - - - - - - - - 1.53 2.48 -0.80
20-Jul-2017 18:30 - - - - - - - - - - - - 7.15 21.84 487.00 21.32 - - - - 8.77 25.12 0.00 -8.39 - - - - 7.43 25.34 323.00 10.17 - 120.82 25.01 - - - - - - - - - 1.54 2.49 -0.80
20-Jul-2017 18:15 - - - - - - - - - - - - 7.15 21.95 489.00 21.46 - - - - 8.75 25.21 0.00 -8.39 - - - - 7.43 25.51 323.00 10.17 - 120.82 25.01 - - - - - - - - - 1.54 2.50 -0.80
20-Jul-2017 18:00 - - - - - - - - - - - - 7.15 22.05 491.00 21.59 - - - - 8.99 24.76 0.10 -8.39 - - - - 7.43 25.64 324.00 10.24 - 120.82 25.01 - - - - - - - - - 1.54 2.51 -0.80
20-Jul-2017 17:45 - - - - - - - - - - - - 7.15 22.14 494.00 21.80 - - - - 9.64 24.95 0.00 -8.39 - - - - 7.43 25.74 325.00 10.30 - 120.82 25.83 - - - - - - - - - 1.55 2.53 -0.80
20-Jul-2017 17:30 - - - - - - - - - - - - 7.15 22.19 497.00 22.00 - - - - 9.72 24.55 0.00 -8.39 - - - - 7.43 25.84 325.00 10.30 - 120.82 25.83 - - - - - - - - - 1.55 2.55 -0.80
20-Jul-2017 17:15 - - - - - - - - - - - - 7.15 22.20 500.00 22.20 - - - - 9.87 24.73 0.00 -8.39 - - - - 7.42 25.95 326.00 10.37 - 120.82 26.67 - - - - - - - - - 1.56 2.57 -0.80
20-Jul-2017 17:00 - - - - - - - - - - - - - - - - - - - - 9.44 25.21 0.00 -8.39 - - - - 7.43 26.01 327.00 10.44 - - 26.67 - - - - - - - - - 1.56 - -0.80
20-Jul-2017 16:45 - - - - - - - - - - - - - - - - - - - - 9.57 24.71 0.00 -8.39 - - - - 7.43 26.00 327.00 10.44 - - 26.67 - - - - - - - - - 1.56 - -0.80
20-Jul-2017 16:30 - - - - - - - - - - - - - - - - - - - - 9.58 24.96 0.00 -8.39 - - - - 7.43 25.99 327.00 10.44 - - 26.67 - - - - - - - - - 1.56 - -0.80
20-Jul-2017 16:15 - - - - - - - - - - - - - - - - - - - - 9.22 25.00 0.00 -8.39 - - - - 7.43 25.96 328.00 10.51 - - 27.53 - - - - - - - - - 1.57 - -0.80
20-Jul-2017 16:00 - - - - - - - - - - - - 7.16 21.98 496.00 21.93 - - - - 9.37 25.25 0.00 -8.39 - - - - 7.43 25.91 327.00 10.44 - 123.35 27.53 - - - - - - - - - 1.56 2.55 -0.80
20-Jul-2017 15:45 - - - - - - - - - - - - 7.17 21.93 498.00 22.07 - - - - 9.38 24.78 0.00 -8.39 - - - - 7.44 25.81 328.00 10.51 - 123.35 27.53 - - - - - - - - - 1.57 2.56 -0.80
20-Jul-2017 15:30 - - - - - - - - - - - - 7.18 21.86 498.00 22.07 - - - - 9.23 25.30 0.00 -8.39 - - - - 7.44 25.64 328.00 10.51 - 125.91 27.53 - - - - - - - - - 1.57 2.56 -0.80
20-Jul-2017 15:15 - - - - - - - - - - - - 7.19 21.78 498.00 22.07 - - - - 9.28 24.99 0.00 -8.39 - - - - 7.45 25.46 328.00 10.51 - 125.91 27.53 - - - - - - - - - 1.57 2.56 -0.80
20-Jul-2017 15:00 - - - - - - - - - - - - 7.20 21.68 501.00 22.27 - - - - 9.21 23.81 0.00 -8.39 - - - - 7.45 25.23 328.00 1,310.71 - 125.91 27.53 - - - - - - - - - 1.57 2.58 -0.80
20-Jul-2017 14:45 - - - - - - - - - - - - 7.20 21.57 502.00 22.34 - - - - 9.12 23.97 0.00 -8.39 - - - - 7.45 24.98 327.00 1,310.71 - 125.91 27.53 - - - - - - - - - 1.56 2.59 -0.80
20-Jul-2017 14:30 - - - - - - - - - - - - 7.21 21.42 506.00 22.61 - - - - 9.36 24.71 0.00 -8.39 - - - - 7.46 24.69 327.00 1,310.71 - 125.91 28.40 - - - - - - - - - 1.56 2.61 -0.80
20-Jul-2017 14:15 - - - - - - - - - - - - 7.21 21.14 513.00 23.09 - - - - 9.42 25.37 0.00 -8.39 - - - - 7.46 24.43 327.00 10.44 - 125.91 27.53 - - - - - - - - - 1.56 2.66 -0.80
20-Jul-2017 14:00 - - - - - - - - - - - - 7.22 20.77 514.00 23.16 - - - - 9.26 24.90 0.00 -8.39 - - - - 7.47 24.22 326.00 10.37 - 125.91 28.40 - - - - - - - - - 1.56 2.67 -0.80
20-Jul-2017 13:45 - - - - - - - - - - - - 7.22 20.39 512.00 23.02 - - - - 9.32 23.78 0.00 -8.39 - - - - 7.47 23.99 326.00 10.37 - 128.50 28.40 - - - - - - - - - 1.56 2.65 -0.80
20-Jul-2017 13:30 - - - - - - - - - - - - 7.24 20.00 510.00 22.88 - - - - 9.18 22.75 0.00 -8.39 - - - - 7.48 23.63 326.00 10.37 - 128.50 28.40 - - - - - - - - - 1.56 2.64 -0.80
20-Jul-2017 13:15 - - - - - - - - - - - - 7.24 19.64 507.00 22.68 - - - - 8.97 23.51 0.00 -8.39 - - - - 7.48 23.32 325.00 10.30 - 128.50 29.30 - - - - - - - - - 1.55 2.62 -0.80
20-Jul-2017 13:00 - - - - - - - - - - - - 7.24 19.28 504.00 22.48 - - - - 8.63 22.29 0.00 -8.39 - - - - 7.49 22.98 325.00 10.30 - 128.50 29.30 - - - - - - - - - 1.55 2.60 -0.80
20-Jul-2017 12:45 - - - - - - - - - - - - 7.25 18.93 503.00 22.41 - - - - 8.62 20.58 0.00 -8.39 - - - - 7.50 22.61 324.00 10.24 - 128.50 28.40 - - - - - - - - - 1.54 2.59 -0.80
20-Jul-2017 12:30 - - - - - - - - - - - - 7.25 18.59 502.00 22.34 - - - - 8.65 19.80 0.00 -8.39 - - - - 7.50 22.24 324.00 10.24 - 128.50 29.30 - - - - - - - - - 1.54 2.59 -0.80
20-Jul-2017 12:15 - - - - - - - - - - - - 7.25 18.24 502.00 22.34 - - - - 8.58 19.71 0.00 -8.39 - - - - 7.51 21.86 324.00 10.24 - 128.50 29.30 - - - - - - - - - 1.54 2.59 -0.80
20-Jul-2017 12:00 - - - - - - - - - - - - 7.24 17.86 500.00 22.20 - - - - 8.57 19.07 0.00 -8.39 - - - - 7.51 21.47 323.00 10.17 - 128.50 29.30 - - - - - - - - - 1.54 2.57 -0.80
20-Jul-2017 11:45 - - - - - - - - - - - - 7.23 17.51 494.00 21.80 - - - - 8.53 19.34 0.00 -8.39 - - - - 7.52 21.09 322.00 10.10 - 128.50 29.30 - - - - - - - - - 1.53 2.53 -0.80
20-Jul-2017 11:30 - - - - - - - - - - - - 7.23 17.23 489.00 21.46 - - - - 8.73 18.91 0.00 -8.39 - - - - 7.52 20.72 322.00 10.10 - 128.50 30.22 - - - - - - - - - 1.53 2.50 -0.80
20-Jul-2017 11:15 - - - - - - - - - - - - 7.23 17.02 482.00 20.98 - - - - 8.79 18.82 0.00 -8.39 - - - - 7.53 20.34 321.00 10.03 - 128.50 30.22 - - - - - - - - - 1.53 2.46 -0.80
20-Jul-2017 11:00 - - - - - - - - - - - - - - - - - - - - 8.83 18.67 0.00 -8.39 - - - - 7.53 19.98 320.00 9.96 - - 30.22 - - - - - - - - - 1.52 - -0.80
20-Jul-2017 10:45 - - - - - - - - - - - - - - - - - - - - 8.69 19.00 0.10 -8.39 - - - - 7.53 19.63 319.00 9.90 - - 30.22 - - - - - - - - - 1.51 - -0.80
20-Jul-2017 10:30 - - - - - - - - - - - - - - - - - - - - 8.69 19.24 0.00 -8.39 - - - - 7.53 19.30 318.00 9.83 - - 30.22 - - - - - - - - - 1.51 - -0.80
20-Jul-2017 10:15 - - - - - - - - - - - - - - - - - - - - 8.52 18.25 0.00 -8.39 - - - - 7.54 18.99 318.00 9.83 - - 30.22 - - - - - - - - - 1.51 - -0.80
20-Jul-2017 10:00 - - - - - - - - - - - - 7.24 16.43 467.00 19.96 - - - - 8.76 18.57 0.00 -8.39 - - - - 7.54 18.70 318.00 9.83 - 125.91 30.22 - - - - - - - - - 1.51 2.36 -0.80
20-Jul-2017 09:45 - - - - - - - - - - - - 7.24 16.38 464.00 19.76 - - - - 8.74 18.96 0.00 -8.39 - - - - 7.54 18.43 317.00 9.76 - 125.91 30.22 - - - - - - - - - 1.50 2.34 -0.80
20-Jul-2017 09:30 - - - - - - - - - - - - 7.25 16.34 462.00 19.62 - - - - 8.78 19.87 0.00 -8.39 - - - - 7.54 18.18 316.00 9.69 - 125.91 29.30 - - - - - - - - - 1.49 2.32 -0.80
20-Jul-2017 09:15 - - - - - - - - - - - - 7.25 16.31 460.00 19.48 - - - - 8.74 20.33 0.10 -8.39 - - - - 7.54 17.96 315.00 9.62 - 125.91 29.30 - - - - - - - - - 1.49 2.31 -0.80
20-Jul-2017 09:00 - - - - - - - - - - - - 7.25 16.30 460.00 19.48 - - - - 8.60 18.88 0.00 -8.39 - - - - 7.54 17.77 315.00 9.62 - 125.91 29.30 - - - - - - - - - 1.49 2.31 -0.80
20-Jul-2017 08:45 - - - - - - - - - - - - 7.25 16.29 459.00 19.42 - - - - 8.49 19.84 0.00 -8.39 - - - - 7.54 17.60 314.00 9.56 - 125.91 29.30 - - - - - - - - - 1.48 2.30 -0.80
20-Jul-2017 08:30 - - - - - - - - - - - - 7.25 16.30 457.00 19.28 - - - - 8.36 19.16 0.00 -8.39 - - - - 7.54 17.47 314.00 9.56 - 125.91 29.30 - - - - - - - - - 1.48 2.29 -0.80
20-Jul-2017 08:15 - - - - - - - - - - - - 7.25 16.32 456.00 19.21 - - - - 8.40 18.84 0.10 -8.39 - - - - 7.54 17.39 313.00 9.49 - 125.91 29.30 - - - - - - - - - 1.48 2.28 -0.80
20-Jul-2017 08:00 - - - - - - - - - - - - 7.25 16.34 456.00 19.21 - - - - 8.45 18.40 0.10 -8.39 - - - - 7.53 17.33 313.00 9.49 - 125.91 29.30 - - - - - - - - - 1.48 2.28 -0.80
20-Jul-2017 07:45 - - - - - - - - - - - - 7.25 16.37 455.00 19.14 - - - - 8.46 17.36 0.10 -8.39 - - - - 7.53 17.30 313.00 9.49 - 123.35 29.30 - - - - - - - - - 1.48 2.28 -0.80
20-Jul-2017 07:30 - - - - - - - - - - - - 7.25 16.42 453.00 19.01 - - - - 8.47 15.92 0.10 -8.39 - - - - 7.53 17.30 312.00 9.42 - 123.35 29.30 - - - - - - - - - 1.47 2.26 -0.80
20-Jul-2017 07:15 - - - - - - - - - - - - 7.25 16.46 453.00 19.01 - - - - 8.46 14.93 0.20 -8.38 - - - - 7.52 17.33 312.00 9.42 - 123.35 29.30 - - - - - - - - - 1.47 2.26 -0.80
20-Jul-2017 07:00 - - - - - - - - - - - - 7.24 16.52 452.00 18.94 - - - - 8.42 13.23 0.10 -8.39 - - - - 7.52 17.40 312.00 9.42 - 123.35 28.40 - - - - - - - - - 1.47 2.26 -0.80
20-Jul-2017 06:45 - - - - - - - - - - - - 7.24 16.58 452.00 18.94 - - - - 8.39 12.84 0.00 -8.39 - - - - 7.52 17.48 313.00 9.49 - 123.35 28.40 - - - - - - - - - 1.48 2.26 -0.80
20-Jul-2017 06:30 - - - - - - - - - - - - 7.24 16.65 451.00 18.87 - - - - 8.41 12.85 0.00 -8.39 - - - - 7.52 17.58 312.00 9.42 - 123.35 28.40 - - - - - - - - - 1.47 2.25 -0.80
20-Jul-2017 06:15 - - - - - - - - - - - - 7.24 16.73 450.00 18.80 - - - - 8.42 13.19 0.00 -8.39 - - - - 7.51 17.69 312.00 9.42 - 123.35 28.40 - - - - - - - - - 1.47 2.25 -0.80
20-Jul-2017 06:00 - - - - - - - - - - - - 7.24 16.80 450.00 18.80 - - - - 8.42 13.27 0.00 -8.39 - - - - 7.51 17.81 313.00 9.49 - 123.35 28.40 - - - - - - - - - 1.48 2.25 -0.80
20-Jul-2017 05:45 - - - - - - - - - - - - 7.24 16.88 449.00 18.74 - - - - 8.45 13.32 0.00 -8.39 - - - - 7.50 17.93 313.00 9.49 - 123.35 28.40 - - - - - - - - - 1.48 2.24 -0.80
20-Jul-2017 05:30 - - - - - - - - - - - - 7.24 16.96 449.00 18.74 - - - - 8.45 13.46 0.10 -8.39 - - - - 7.50 18.05 313.00 9.49 - 123.35 28.40 - - - - - - - - - 1.48 2.24 -0.80
20-Jul-2017 05:15 - - - - - - - - - - - - 7.24 17.05 448.00 18.67 - - - - 8.46 13.59 0.00 -8.39 - - - - 7.50 18.18 313.00 9.49 - 120.82 28.40 - - - - - - - - - 1.48 2.23 -0.80
20-Jul-2017 05:00 - - - - - - - - - - - - 7.24 17.13 448.00 18.67 - - - - 8.48 13.71 0.00 -8.39 - - - - 7.49 18.30 313.00 9.49 - 120.82 28.40 - - - - - - - - - 1.48 2.23 -0.80
20-Jul-2017 04:45 - - - - - - - - - - - - 7.24 17.22 449.00 18.74 - - - - 8.49 13.85 0.00 -8.39 - - - - 7.49 18.43 313.00 9.49 - 120.82 28.40 - - - - - - - - - 1.48 2.24 -0.80
20-Jul-2017 04:30 - - - - - - - - - - - - 7.24 17.31 449.00 18.74 - - - - 8.47 14.06 0.00 -8.39 - - - - 7.49 18.55 314.00 9.56 - 120.82 28.40 - - - - - - - - - 1.48 2.24 -0.80
20-Jul-2017 04:15 - - - - - - - - - - - - 7.23 17.40 449.00 18.74 - - - - 8.51 14.15 0.00 -8.39 - - - - 7.49 18.68 313.00 9.49 - 120.82 28.40 - - - - - - - - - 1.48 2.24 -0.80
20-Jul-2017 04:00 - - - - - - - - - - - - 7.23 17.49 449.00 18.74 - - - - 8.49 14.34 0.00 -8.39 - - - - 7.48 18.80 313.00 9.49 - 120.82 28.40 - - - - - - - - - 1.48 2.24 -0.80
20-Jul-2017 03:45 - - - - - - - - - - - - 7.23 17.59 450.00 18.80 - - - - 8.50 14.53 0.10 -8.39 - - - - 7.48 18.91 312.00 9.42 - 120.82 28.40 - - - - - - - - - 1.47 2.25 -0.80
20-Jul-2017 03:30 - - - - - - - - - - - - 7.23 17.68 451.00 18.87 - - - - 8.45 14.62 0.00 -8.39 - - - - 7.48 19.02 313.00 9.49 - 118.33 28.40 - - - - - - - - - 1.48 2.25 -0.80
20-Jul-2017 03:15 - - - - - - - - - - - - 7.22 17.77 451.00 18.87 - - - - 8.46 14.95 0.00 -8.39 - - - - 7.48 19.13 313.00 9.49 - 118.33 27.53 - - - - - - - - - 1.48 2.25 -0.80
20-Jul-2017 03:00 - - - - - - - - - - - - 7.29 17.87 452.00 18.94 - - - - 8.47 15.16 0.00 -8.39 - - - - 7.47 19.25 312.00 9.42 - 120.82 27.53 - - - - - - - - - 1.47 2.26 -0.80
20-Jul-2017 02:45 - - - - - - - - - - - - 7.29 17.97 453.00 19.01 - - - - 8.45 15.41 0.00 -8.39 - - - - 7.47 19.37 314.00 9.56 - 118.33 27.53 - - - - - - - - - 1.48 2.26 -0.80
20-Jul-2017 02:30 - - - - - - - - - - - - 7.28 18.08 453.00 19.01 - - - - 8.46 15.61 0.00 -8.39 - - - - 7.47 19.50 313.00 9.49 - 118.33 27.53 - - - - - - - - - 1.48 2.26 -0.80
20-Jul-2017 02:15 - - - - - - - - - - - - 7.28 18.19 454.00 19.08 - - - - 8.45 15.79 0.00 -8.39 - - - - 7.47 19.64 313.00 9.49 - 118.33 27.53 - - - - - - - - - 1.48 2.27 -0.80
20-Jul-2017 02:00 - - - - - - - - - - - - 7.28 18.30 455.00 19.14 - - - - 8.43 15.93 0.00 -8.39 - - - - 7.47 19.78 314.00 9.56 - 118.33 27.53 - - - - - - - - - 1.48 2.28 -0.80
20-Jul-2017 01:45 - - - - - - - - - - - - 7.28 18.41 455.00 19.14 - - - - 8.43 16.16 0.10 -8.39 - - - - 7.46 19.94 314.00 9.56 - 118.33 27.53 - - - - - - - - - 1.48 2.28 -0.80
20-Jul-2017 01:30 - - - - - - - - - - - - 7.28 18.53 456.00 19.21 - - - - 8.45 16.35 0.00 -8.39 - - - - 7.46 20.08 313.00 9.49 - 115.86 27.53 - - - - - - - - - 1.48 2.28 -0.80
20-Jul-2017 01:15 - - - - - - - - - - - - 7.28 18.65 455.00 19.14 - - - - 8.42 16.50 0.00 -8.39 - - - - 7.46 20.22 314.00 9.56 - 115.86 27.53 - - - - - - - - - 1.48 2.28 -0.80
20-Jul-2017 01:00 - - - - - - - - - - - - 7.28 18.77 456.00 19.21 - - - - 8.41 16.70 0.00 -8.39 - - - - 7.46 20.35 314.00 9.56 - 118.33 26.67 - - - - - - - - - 1.48 2.28 -0.80
20-Jul-2017 00:45 - - - - - - - - - - - - 7.27 18.89 455.00 19.14 - - - - 8.42 16.95 0.00 -8.39 - - - - 7.47 20.48 314.00 9.56 - 115.86 27.53 - - - - - - - - - 1.48 2.28 -0.80
20-Jul-2017 00:30 - - - - - - - - - - - - 7.27 19.02 455.00 19.14 - - - - 8.38 17.29 0.00 -8.39 - - - - 7.47 20.60 315.00 9.62 - 115.86 27.53 - - - - - - - - - 1.49 2.28 -0.80
20-Jul-2017 00:15 - - - - - - - - - - - - 7.27 19.14 455.00 19.14 - - - - 8.36 17.34 0.00 -8.39 - - - - 7.46 20.70 315.00 9.62 - 115.86 26.67 - - - - - - - - - 1.49 2.28 -0.80
20-Jul-2017 00:00 - - - - - - - - - - - - 7.27 19.26 455.00 19.14 - - - - 8.36 17.53 0.10 -8.39 - - - - 7.46 20.82 315.00 9.62 - 118.33 26.67 - - - - - - - - - 1.49 2.28 -0.80
19-Jul-2017 23:45 - - - - - - - - - - - - 7.27 19.37 455.00 19.14 - - - - 8.35 17.67 0.00 -8.39 - - - - 7.46 20.96 316.00 9.69 - 115.86 25.83 - - - - - - - - - 1.49 2.28 -0.80
19-Jul-2017 23:30 - - - - - - - - - - - - 7.27 19.48 455.00 19.14 - - - - 8.39 17.89 0.00 -8.39 - - - - 7.46 21.10 316.00 9.69 - 118.33 25.83 - - - - - - - - - 1.49 2.28 -0.80
19-Jul-2017 23:15 - - - - - - - - - - - - 7.27 19.60 455.00 19.14 - - - - 8.32 18.01 0.00 -8.39 - - - - 7.46 21.24 316.00 9.69 - 118.33 25.83 - - - - - - - - - 1.49 2.28 -0.80
19-Jul-2017 23:00 - - - - - - - - - - - - 7.27 19.71 454.00 19.08 - - - - 8.40 18.36 0.00 -8.39 - - - - 7.46 21.38 317.00 9.76 - 118.33 25.83 - - - - - - - - - 1.50 2.27 -0.80
19-Jul-2017 22:45 - - - - - - - - - - - - 7.26 19.84 454.00 19.08 - - - - 8.36 18.67 0.00 -8.39 - - - - 7.46 21.54 317.00 9.76 - 118.33 25.83 - - - - - - - - - 1.50 2.27 -0.80
19-Jul-2017 22:30 - - - - - - - - - - - - 7.26 19.96 453.00 19.01 - - - - 8.39 18.93 0.00 -8.39 - - - - 7.45 21.70 317.00 9.76 - 118.33 25.83 - - - - - - - - - 1.50 2.26 -0.80
19-Jul-2017 22:15 - - - - - - - - - - - - 7.26 20.08 454.00 19.08 - - - - 8.41 18.92 0.00 -8.39 - - - - 7.45 21.87 318.00 9.83 - 118.33 25.83 - - - - - - - - - 1.51 2.27 -0.80
19-Jul-2017 22:00 - - - - - - - - - - - - 7.26 20.20 454.00 19.08 - - - - 8.26 19.34 0.10 -8.39 - - - - 7.45 22.07 319.00 9.90 - 118.33 25.83 - - - - - - - - - 1.51 2.27 -0.80
19-Jul-2017 21:45 - - - - - - - - - - - - 7.26 20.32 454.00 19.08 - - - - 8.44 19.68 0.00 -8.39 - - - - 7.45 22.29 320.00 9.96 - 118.33 25.83 - - - - - - - - - 1.52 2.27 -0.80
19-Jul-2017 21:30 - - - - - - - - - - - - 7.26 20.44 454.00 19.08 - - - - 8.48 19.87 0.00 -8.39 - - - - 7.45 22.49 321.00 10.03 - 120.82 25.83 - - - - - - - - - 1.53 2.27 -0.80
19-Jul-2017 21:15 - - - - - - - - - - - - 7.26 20.55 454.00 19.08 - - - - 8.48 20.25 0.00 -8.39 - - - - 7.44 22.70 321.00 10.03 - 120.82 25.83 - - - - - - - - - 1.53 2.27 -0.80
19-Jul-2017 21:00 - - - - - - - - - - - - 7.26 20.67 455.00 19.14 - - - - 8.80 20.37 0.10 -8.39 - - - - 7.44 22.92 322.00 10.10 - 120.82 25.83 - - - - - - - - - 1.53 2.28 -0.80
19-Jul-2017 20:45 - - - - - - - - - - - - 7.26 20.80 454.00 19.08 - - - - 8.71 20.62 0.00 -8.39 - - - - 7.43 23.16 321.00 10.03 - 120.82 25.83 - - - - - - - - - 1.53 2.27 -0.80
19-Jul-2017 20:30 - - - - - - - - - - - - 7.26 20.92 456.00 19.21 - - - - 8.55 21.24 0.00 -8.39 - - - - 7.43 23.41 323.00 10.17 - 120.82 26.67 - - - - - - - - - 1.54 2.28 -0.80
19-Jul-2017 20:15 - - - - - - - - - - - - 7.26 21.03 458.00 19.35 - - - - 8.59 21.68 0.00 -8.39 - - - - 7.43 23.65 323.00 10.17 - 120.82 26.67 - - - - - - - - - 1.54 2.30 -0.80
19-Jul-2017 20:00 - - - - - - - - - - - - - - - - - - - - 8.98 21.93 0.00 -8.39 - - - - 7.42 23.91 323.00 10.17 - - 26.67 - - - - - - - - - 1.54 - -0.80
19-Jul-2017 19:45 - - - - - - - - - - - - - - - - - - - - 8.89 22.46 0.00 -8.39 - - - - 7.42 24.17 324.00 10.24 - - 27.53 - - - - - - - - - 1.54 - -0.80
19-Jul-2017 19:30 - - - - - - - - - - - - - - - - - - - - 9.21 22.74 0.00 -8.39 - - - - 7.42 24.40 324.00 10.24 - - 26.67 - - - - - - - - - 1.54 - -0.80
19-Jul-2017 19:15 - - - - - - - - - - - - - - - - - - - - 9.34 23.28 0.00 -8.39 - - - - 7.42 24.64 325.00 10.30 - - 27.53 - - - - - - - - - 1.55 - -0.80
19-Jul-2017 19:00 - - - - - - - - - - - - 7.25 21.54 467.00 19.96 - - - - 9.22 23.94 0.00 -8.39 - - - - 7.41 24.87 325.00 10.30 - 125.91 27.53 - - - - - - - - - 1.55 2.36 -0.80
19-Jul-2017 18:45 - - - - - - - - - - - - 7.25 21.64 470.00 20.16 - - - - 9.46 24.53 0.10 -8.39 - - - - 7.41 25.07 326.00 10.37 - 125.91 27.53 - - - - - - - - - 1.56 2.38 -0.80
19-Jul-2017 18:30 - - - - - - - - - - - - 7.25 21.71 473.00 20.37 - - - - 9.16 25.19 0.00 -8.39 - - - - 7.41 25.27 327.00 10.44 - 125.91 28.40 - - - - - - - - - 1.56 2.40 -0.80
19-Jul-2017 18:15 - - - - - - - - - - - - 7.25 21.78 474.00 20.44 - - - - 9.35 25.27 0.00 -8.39 - - - - 7.41 25.43 328.00 10.51 - 128.50 28.40 - - - - - - - - - 1.57 2.40 -0.80
19-Jul-2017 18:00 - - - - - - - - - - - - 7.25 21.83 476.00 20.57 - - - - 9.19 25.29 0.00 -8.39 - - - - 7.41 25.57 328.00 10.51 - 128.50 28.40 - - - - - - - - - 1.57 2.42 -0.80
19-Jul-2017 17:45 - - - - - - - - - - - - 7.26 21.86 477.00 20.64 - - - - 9.52 25.24 0.00 -8.39 - - - - 7.41 25.66 329.00 10.58 - 128.50 28.40 - - - - - - - - - 1.58 2.42 -0.80
19-Jul-2017 17:30 - - - - - - - - - - - - 7.26 21.87 478.00 20.71 - - - - 9.50 25.09 0.00 -8.39 - - - - 7.41 25.74 329.00 10.58 - 128.50 28.40 - - - - - - - - - 1.58 2.43 -0.80
19-Jul-2017 17:15 - - - - - - - - - - - - 7.26 21.84 479.00 20.78 - - - - 9.25 25.60 0.00 -8.39 - - - - 7.41 25.81 329.00 10.58 - 131.12 29.30 - - - - - - - - - 1.58 2.44 -0.80
19-Jul-2017 17:00 - - - - - - - - - - - - - - - - - - - - 9.30 25.63 0.00 -8.39 - - - - 7.41 25.85 329.00 10.58 - - 29.30 - - - - - - - - - 1.58 - -0.80
19-Jul-2017 16:45 - - - - - - - - - - - - - - - - - - - - 8.93 25.40 0.00 -8.39 - - - - 7.41 25.88 330.00 10.64 - - 29.30 - - - - - - - - - 1.58 - -0.80
19-Jul-2017 16:30 - - - - - - - - - - - - - - - - - - - - 9.20 25.48 0.00 -8.39 - - - - 7.41 25.85 330.00 10.64 - - 29.30 - - - - - - - - - 1.58 - -0.80
19-Jul-2017 16:15 - - - - - - - - - - - - - - - - - - - - 8.99 24.94 0.00 -8.39 - - - - 7.41 25.79 328.00 10.51 - - 30.22 - - - - - - - - - 1.57 - -0.80
19-Jul-2017 16:00 - - - - - - - - - - - - - - - - - - - - 8.73 24.92 0.00 -8.39 - - - - 7.42 25.68 330.00 10.64 - - 30.22 - - - - - - - - - 1.58 - -0.80
19-Jul-2017 15:45 - - - - - - - - - - - - - - - - - - - - 8.74 24.43 0.00 -8.39 - - - - 7.42 25.56 329.00 10.58 - - 31.16 - - - - - - - - - 1.58 - -0.80
19-Jul-2017 15:30 - - - - - - - - - - - - - - - - - - - - 8.73 24.52 0.00 -8.39 - - - - 7.42 25.38 329.00 10.58 - - 31.16 - - - - - - - - - 1.58 - -0.80
19-Jul-2017 15:15 - - - - - - - - - - - - - - - - - - - - 8.74 24.60 0.00 -8.39 - - - - 7.43 25.18 328.00 10.51 - - 31.16 - - - - - - - - - 1.57 - -0.80
19-Jul-2017 15:00 - - - - - - - - - - - - - - - - - - - - 8.73 24.41 0.00 -8.39 - - - - 7.43 24.96 327.00 10.44 - - 32.13 - - - - - - - - - 1.56 - -0.80
19-Jul-2017 14:45 - - - - - - - - - - - - - - - - - - - - 8.74 23.71 0.00 -8.39 - - - - 7.44 24.71 327.00 10.44 - - 32.13 - - - - - - - - - 1.56 - -0.80
19-Jul-2017 14:30 - - - - - - - - - - - - - - - - - - - - 8.71 23.96 0.00 -8.39 - - - - 7.44 24.46 327.00 10.44 - - 32.13 - - - - - - - - - 1.56 - -0.80
19-Jul-2017 14:15 - - - - - - - - - - - - - - - - - - - - 8.71 24.25 0.00 -8.39 - - - - 7.44 24.20 326.00 10.37 - - 32.13 - - - - - - - - - 1.56 - -0.80
19-Jul-2017 14:00 - - - - - - - - - - - - 7.30 20.05 473.00 20.37 - - - - 8.70 23.01 0.00 -8.39 - - - - 7.45 23.90 325.00 10.30 - 136.44 32.13 - - - - - - - - - 1.55 2.40 -0.80
19-Jul-2017 13:45 - - - - - - - - - - - - 7.31 19.78 471.00 20.23 - - - - 8.70 22.96 0.00 -8.39 - - - - 7.45 23.60 326.00 10.37 - 136.44 33.11 - - - - - - - - - 1.56 2.38 -0.80
19-Jul-2017 13:30 - - - - - - - - - - - - 7.31 19.49 470.00 20.16 - - - - 8.69 22.91 0.00 -8.39 - - - - 7.45 23.29 325.00 10.30 - 139.15 33.11 - - - - - - - - - 1.55 2.38 -0.80
19-Jul-2017 13:15 - - - - - - - - - - - - 7.31 19.19 468.00 20.03 - - - - 8.68 21.60 0.00 -8.39 - - - - 7.46 22.97 325.00 10.30 - 136.44 33.11 - - - - - - - - - 1.55 2.36 -0.80
19-Jul-2017 13:00 - - - - - - - - - - - - 7.31 18.89 466.00 19.89 - - - - 8.66 21.07 0.00 -8.39 - - - - 7.46 22.65 324.00 10.24 - 139.15 33.11 - - - - - - - - - 1.54 2.35 -0.80
19-Jul-2017 12:45 - - - - - - - - - - - - 7.31 18.59 465.00 19.82 - - - - 8.68 19.56 0.00 -8.39 - - - - 7.47 22.31 324.00 10.24 - 139.15 34.12 - - - - - - - - - 1.54 2.34 -0.80
19-Jul-2017 12:30 - - - - - - - - - - - - 7.31 18.31 464.00 19.76 - - - - 8.66 19.33 0.10 -8.39 - - - - 7.47 21.96 324.00 10.24 - 139.15 34.12 - - - - - - - - - 1.54 2.34 -0.80
19-Jul-2017 12:15 - - - - - - - - - - - - 7.31 18.03 462.00 19.62 - - - - 8.65 18.87 0.00 -8.39 - - - - 7.48 21.61 323.00 10.17 - 139.15 34.12 - - - - - - - - - 1.54 2.32 -0.80
19-Jul-2017 12:00 - - - - - - - - - - - - 7.31 17.74 461.00 19.55 - - - - 8.63 18.62 0.10 -8.39 - - - - 7.48 21.27 323.00 10.17 - 139.15 35.15 - - - - - - - - - 1.54 2.32 -0.80
19-Jul-2017 11:45 - - - - - - - - - - - - 7.32 17.48 457.00 19.28 - - - - 8.62 18.36 0.00 -8.39 - - - - 7.49 20.95 322.00 10.10 - 139.15 34.12 - - - - - - - - - 1.53 2.29 -0.80
19-Jul-2017 11:30 - - - - - - - - - - - - 7.31 17.27 453.00 19.01 - - - - 8.60 18.33 0.00 -8.39 - - - - 7.49 20.63 322.00 10.10 - 139.15 35.15 - - - - - - - - - 1.53 2.26 -0.80
19-Jul-2017 11:15 - - - - - - - - - - - - 7.32 17.11 448.00 18.67 - - - - 8.59 17.93 0.00 -8.39 - - - - 7.49 20.31 322.00 10.10 - 139.15 35.15 - - - - - - - - - 1.53 2.23 -0.80
19-Jul-2017 11:00 - - - - - - - - - - - - 7.31 16.99 446.00 18.53 - - - - 8.56 17.71 0.00 -8.39 - - - - 7.50 20.01 321.00 10.03 - 139.15 35.15 - - - - - - - - - 1.53 2.22 -0.80
19-Jul-2017 10:45 - - - - - - - - - - - - 7.32 16.89 444.00 18.40 - - - - 8.55 17.85 0.00 -8.39 - - - - 7.50 19.71 321.00 10.03 - 139.15 35.15 - - - - - - - - - 1.53 2.21 -0.80
19-Jul-2017 10:30 - - - - - - - - - - - - 7.32 16.80 442.00 18.26 - - - - 8.53 17.91 0.00 -8.39 - - - - 7.50 19.42 320.00 9.96 - 139.15 35.15 - - - - - - - - - 1.52 2.19 -0.80
19-Jul-2017 10:15 - - - - - - - - - - - - - - - - - - - - 8.52 17.23 0.00 -8.39 - - - - 7.51 19.12 319.00 9.90 - - 35.15 - - - - - - - - - 1.51 - -0.80
19-Jul-2017 10:00 - - - - - - - - - - - - - - - - - - - - 8.51 17.16 0.10 -8.39 - - - - 7.51 18.85 319.00 9.90 - - 35.15 - - - - - - - - - 1.51 - -0.80
19-Jul-2017 09:45 - - - - - - - - - - - - - - - - - - - - 8.48 16.57 0.00 -8.39 - - - - 7.51 18.60 318.00 9.83 - - 35.15 - - - - - - - - - 1.51 - -0.80
19-Jul-2017 09:30 - - - - - - - - - - - - - - - - - - - - 8.46 17.01 0.00 -8.39 - - - - 7.52 18.36 318.00 9.83 - - 35.15 - - - - - - - - - 1.51 - -0.80
19-Jul-2017 09:15 - - - - - - - - - - - - - - - - - - - - 8.44 16.92 0.10 -8.39 - - - - 7.52 18.16 318.00 9.83 - - 35.15 - - - - - - - - - 1.51 - -0.80
19-Jul-2017 09:00 - - - - - - - - - - - - - - - - - - - - 8.43 16.36 0.10 -8.39 - - - - 7.52 18.00 317.00 9.76 - - 34.12 - - - - - - - - - 1.50 - -0.80
19-Jul-2017 08:45 - - - - - - - - - - - - - - - - - - - - 8.41 16.49 0.10 -8.39 - - - - 7.52 17.86 316.00 9.69 - - 35.15 - - - - - - - - - 1.49 - -0.80
19-Jul-2017 08:30 - - - - - - - - - - - - - - - - - - - - 8.40 16.26 0.20 -8.38 - - - - 7.53 17.76 316.00 9.69 - - 35.15 - - - - - - - - - 1.49 - -0.80
19-Jul-2017 08:15 - - - - - - - - - - - - - - - - - - - - 8.39 16.19 0.40 -8.37 - - - - 7.53 17.69 316.00 9.69 - - 35.15 - - - - - - - - - 1.49 - -0.80
19-Jul-2017 08:00 - - - - - - - - - - - - - - - - - - - - 8.39 15.84 0.40 -8.37 - - - - 7.53 17.64 315.00 9.62 - - 35.15 - - - - - - - - - 1.49 - -0.80
19-Jul-2017 07:45 - - - - - - - - - - - - - - - - - - - - 8.37 15.57 0.40 -8.37 - - - - 7.53 17.62 315.00 9.62 - - 35.15 - - - - - - - - - 1.49 - -0.80
19-Jul-2017 07:30 - - - - - - - - - - - - - - - - - - - - 8.36 15.01 0.60 -8.36 - - - - 7.53 17.61 315.00 9.62 - - 35.15 - - - - - - - - - 1.49 - -0.80
19-Jul-2017 07:15 - - - - - - - - - - - - - - - - - - - - 8.35 14.76 0.50 -8.37 - - - - 7.53 17.62 315.00 9.62 - - 35.15 - - - - - - - - - 1.49 - -0.80
19-Jul-2017 07:00 - - - - - - - - - - - - - - - - - - - - 8.35 13.82 0.50 -8.37 - - - - 7.53 17.66 315.00 9.62 - - 36.20 - - - - - - - - - 1.49 - -0.80
19-Jul-2017 06:45 - - - - - - - - - - - - - - - - - - - - 8.34 13.56 0.40 -8.37 - - - - 7.53 17.73 314.00 9.56 - - 36.20 - - - - - - - - - 1.48 - -0.80
19-Jul-2017 06:30 - - - - - - - - - - - - - - - - - - - - 8.34 13.71 0.50 -8.37 - - - - 7.53 17.81 315.00 1,310.71 - - 35.15 - - - - - - - - - 1.49 - -0.80
19-Jul-2017 06:15 - - - - - - - - - - - - - - - - - - - - 8.33 13.64 0.40 -8.37 - - - - 7.53 17.91 315.00 1,310.71 - - 36.20 - - - - - - - - - 1.49 - -0.80
19-Jul-2017 06:00 - - - - - - - - - - - - - - - - - - - - - - - - - - - - 7.53 18.00 315.00 9.62 - - - - - - - - - - - - 1.49 - -
19-Jul-2017 05:45 - - - - - - - - - - - - - - - - - - - - - - - - - - - - 7.53 18.11 316.00 9.69 - - - - - - - - - - - - 1.49 - -
19-Jul-2017 05:30 - - - - - - - - - - - - - - - - - - - - - - - - - - - - 7.53 18.21 315.00 9.62 - - - - - - - - - - - - 1.49 - -
19-Jul-2017 05:15 - - - - - - - - - - - - - - - - - - - - - - - - - - - - 7.52 18.32 315.00 9.62 - - - - - - - - - - - - 1.49 - -
19-Jul-2017 05:00 - - - - - - - - - - - - - - - - - - - - - - - - - - - - 7.52 18.43 314.00 9.56 - - - - - - - - - - - - 1.48 - -
19-Jul-2017 04:45 - - - - - - - - - - - - - - - - - - - - - - - - - - - - 7.52 18.55 316.00 9.69 - - - - - - - - - - - - 1.49 - -
19-Jul-2017 04:30 - - - - - - - - - - - - - - - - - - - - - - - - - - - - 7.52 18.66 316.00 9.69 - - - - - - - - - - - - 1.49 - -
19-Jul-2017 04:15 - - - - - - - - - - - - - - - - - - - - - - - - - - - - 7.51 18.78 315.00 9.62 - - - - - - - - - - - - 1.49 - -
19-Jul-2017 04:00 - - - - - - - - - - - - - - - - - - - - 8.34 14.80 0.40 -8.37 - - - - 7.51 18.90 316.00 9.69 - - 35.15 - - - - - - - - - 1.49 - -0.80
19-Jul-2017 03:45 - - - - - - - - - - - - - - - - - - - - 8.34 14.93 0.20 -8.38 - - - - 7.51 19.04 316.00 9.69 - - 35.15 - - - - - - - - - 1.49 - -0.80
19-Jul-2017 03:30 - - - - - - - - - - - - - - - - - - - - 8.34 15.26 0.40 -8.37 - - - - 7.51 19.18 314.00 9.56 - - 34.12 - - - - - - - - - 1.48 - -0.80
19-Jul-2017 03:15 - - - - - - - - - - - - - - - - - - - - 8.35 15.15 0.40 -8.37 - - - - 7.51 19.34 315.00 9.62 - - 33.11 - - - - - - - - - 1.49 - -0.80
19-Jul-2017 03:00 - - - - - - - - - - - - - - - - - - - - 8.35 15.43 0.40 -8.37 - - - - 7.50 19.49 317.00 9.76 - - 33.11 - - - - - - - - - 1.50 - -0.80
19-Jul-2017 02:45 - - - - - - - - - - - - - - - - - - - - 8.36 15.43 0.40 -8.37 - - - - 7.50 19.65 315.00 9.62 - - 33.11 - - - - - - - - - 1.49 - -0.80
19-Jul-2017 02:30 - - - - - - - - - - - - - - - - - - - - 8.36 15.80 0.40 -8.37 - - - - 7.50 19.79 316.00 9.69 - - 33.11 - - - - - - - - - 1.49 - -0.80
19-Jul-2017 02:15 - - - - - - - - - - - - - - - - - - - - 8.36 15.82 0.50 -8.37 - - - - 7.49 19.93 317.00 9.76 - - 32.13 - - - - - - - - - 1.50 - -0.80
19-Jul-2017 02:00 - - - - - - - - - - - - - - - - - - - - 8.36 15.98 0.50 -8.37 - - - - 7.49 20.05 317.00 9.76 - - 32.13 - - - - - - - - - 1.50 - -0.80
19-Jul-2017 01:45 - - - - - - - - - - - - - - - - - - - - 8.38 16.10 0.40 -8.37 - - - - 7.49 20.16 316.00 9.69 - - 32.13 - - - - - - - - - 1.49 - -0.80
19-Jul-2017 01:30 - - - - - - - - - - - - - - - - - - - - 8.38 16.36 0.50 -8.37 - - - - 7.49 20.28 317.00 9.76 - - 32.13 - - - - - - - - - 1.50 - -0.80
19-Jul-2017 01:15 - - - - - - - - - - - - - - - - - - - - 8.38 16.40 0.40 -8.37 - - - - 7.48 20.43 317.00 9.76 - - 32.13 - - - - - - - - - 1.50 - -0.80
19-Jul-2017 01:00 - - - - - - - - - - - - - - - - - - - - 8.39 16.65 0.40 -8.37 - - - - 7.48 20.56 316.00 9.69 - - 31.16 - - - - - - - - - 1.49 - -0.80
19-Jul-2017 00:45 - - - - - - - - - - - - - - - - - - - - 8.39 16.64 0.50 -8.37 - - - - 7.48 20.70 318.00 9.83 - - 31.16 - - - - - - - - - 1.51 - -0.80
19-Jul-2017 00:30 - - - - - - - - - - - - - - - - - - - - 8.39 16.79 0.40 -8.37 - - - - 7.48 20.82 318.00 9.83 - - 31.16 - - - - - - - - - 1.51 - -0.80
19-Jul-2017 00:15 - - - - - - - - - - - - - - - - - - - - 8.39 16.89 0.40 -8.37 - - - - 7.48 20.90 318.00 9.83 - - 31.16 - - - - - - - - - 1.51 - -0.80
19-Jul-2017 00:00 - - - - - - - - - - - - - - - - - - - - 8.39 17.07 0.40 -8.37 - - - - 7.47 20.96 319.00 9.90 - - 31.16 - - - - - - - - - 1.51 - -0.80
18-Jul-2017 23:45 - - - - - - - - - - - - - - - - - - - - 8.39 17.30 0.10 -8.39 - - - - 7.47 21.03 319.00 9.90 - - 31.16 - - - - - - - - - 1.51 - -0.80
18-Jul-2017 23:30 - - - - - - - - - - - - - - - - - - - - 8.36 17.55 0.00 -8.39 - - - - 7.47 21.09 319.00 9.90 - - 30.22 - - - - - - - - - 1.51 - -0.80
18-Jul-2017 23:15 - - - - - - - - - - - - - - - - - - - - 8.41 17.73 0.10 -8.39 - - - - 7.47 21.17 320.00 9.96 - - 30.22 - - - - - - - - - 1.52 - -0.80
18-Jul-2017 23:00 - - - - - - - - - - - - - - - - - - - - 8.39 17.81 0.00 -8.39 - - - - 7.47 21.24 319.00 9.90 - - 30.22 - - - - - - - - - 1.51 - -0.80
18-Jul-2017 22:45 - - - - - - - - - - - - - - - - - - - - 8.43 18.07 0.00 -8.39 - - - - 7.46 21.33 320.00 9.96 - - 29.30 - - - - - - - - - 1.52 - -0.80
18-Jul-2017 22:30 - - - - - - - - - - - - - - - - - - - - 8.43 18.32 0.10 -8.39 - - - - 7.46 21.42 320.00 9.96 - - 29.30 - - - - - - - - - 1.52 - -0.80
18-Jul-2017 22:15 - - - - - - - - - - - - - - - - - - - - 8.43 18.43 0.10 -8.39 - - - - 7.46 21.53 319.00 9.90 - - 30.22 - - - - - - - - - 1.51 - -0.80
18-Jul-2017 22:00 - - - - - - - - - - - - - - - - - - - - 8.41 18.45 0.10 -8.39 - - - - 7.46 21.63 320.00 9.96 - - 29.30 - - - - - - - - - 1.52 - -0.80
18-Jul-2017 21:45 - - - - - - - - - - - - - - - - - - - - 8.45 18.59 0.00 -8.39 - - - - 7.45 21.74 319.00 9.90 - - 29.30 - - - - - - - - - 1.51 - -0.80
18-Jul-2017 21:30 - - - - - - - - - - - - - - - - - - - - 8.40 19.18 0.00 -8.39 - - - - 7.45 21.87 321.00 10.03 - - 29.30 - - - - - - - - - 1.53 - -0.80
18-Jul-2017 21:15 - - - - - - - - - - - - - - - - - - - - 8.40 19.37 0.10 -8.39 - - - - 7.45 22.03 321.00 10.03 - - 29.30 - - - - - - - - - 1.53 - -0.80
18-Jul-2017 21:00 - - - - - - - - - - - - - - - - - - - - 8.41 19.39 0.00 -8.39 - - - - 7.45 22.17 320.00 9.96 - - 29.30 - - - - - - - - - 1.52 - -0.80
18-Jul-2017 20:45 - - - - - - - - - - - - - - - - - - - - 8.41 19.71 0.00 -8.39 - - - - 7.45 22.31 321.00 10.03 - - 29.30 - - - - - - - - - 1.53 - -0.80
18-Jul-2017 20:30 - - - - - - - - - - - - - - - - - - - - 8.39 19.98 0.00 -8.39 - - - - 7.44 22.46 322.00 10.10 - - 29.30 - - - - - - - - - 1.53 - -0.80
18-Jul-2017 20:15 - - - - - - - - - - - - - - - - - - - - 8.38 20.36 0.00 -8.39 - - - - 7.44 22.60 322.00 10.10 - - 29.30 - - - - - - - - - 1.53 - -0.80
18-Jul-2017 20:00 - - - - - - - - - - - - - - - - - - - - 8.39 20.54 0.00 -8.39 - - - - 7.44 22.72 323.00 10.17 - - 29.30 - - - - - - - - - 1.54 - -0.80
18-Jul-2017 19:45 - - - - - - - - - - - - - - - - - - - - 8.37 20.78 0.00 -8.39 - - - - 7.44 22.85 323.00 10.17 - - 30.22 - - - - - - - - - 1.54 - -0.80
18-Jul-2017 19:30 - - - - - - - - - - - - - - - - - - - - 8.37 20.87 0.00 -8.39 - - - - 7.44 22.95 323.00 10.17 - - 29.30 - - - - - - - - - 1.54 - -0.80
18-Jul-2017 19:15 - - - - - - - - - - - - - - - - - - - - 8.42 20.95 0.00 -8.39 - - - - 7.44 23.03 324.00 10.24 - - 30.22 - - - - - - - - - 1.54 - -0.80
18-Jul-2017 19:00 - - - - - - - - - - - - 7.29 20.51 438.00 17.99 - - - - 8.43 21.25 0.00 -8.39 - - - - 7.43 23.08 324.00 10.24 - 133.76 30.22 - - - - - - - - - 1.54 2.17 -0.80
18-Jul-2017 18:45 - - - - - - - - - - - - 7.29 20.54 439.00 18.06 - - - - 8.46 21.65 0.10 -8.39 - - - - 7.43 23.10 324.00 10.24 - 136.44 30.22 - - - - - - - - - 1.54 2.17 -0.80
18-Jul-2017 18:30 - - - - - - - - - - - - 7.29 20.56 441.00 18.19 - - - - 8.64 22.10 0.00 -8.39 - - - - 7.43 23.15 324.00 10.24 - 136.44 31.16 - - - - - - - - - 1.54 2.19 -0.80
18-Jul-2017 18:15 - - - - - - - - - - - - 7.30 20.55 442.00 18.26 - - - - 8.65 21.97 0.00 -8.39 - - - - 7.43 23.32 324.00 10.24 - 136.44 32.13 - - - - - - - - - 1.54 2.19 -0.80
18-Jul-2017 18:00 - - - - - - - - - - - - 7.30 20.54 443.00 18.33 - - - - 8.68 22.39 0.00 -8.39 - - - - 7.43 23.52 326.00 10.37 - 136.44 33.11 - - - - - - - - - 1.56 2.20 -0.80
18-Jul-2017 17:45 - - - - - - - - - - - - 7.30 20.52 445.00 18.46 - - - - 8.68 22.96 0.00 -8.39 - - - - 7.43 23.66 327.00 10.44 - 139.15 33.11 - - - - - - - - - 1.56 2.21 -0.80
18-Jul-2017 17:30 - - - - - - - - - - - - 7.31 20.48 446.00 18.53 - - - - 8.69 22.81 0.00 -8.39 - - - - 7.43 23.65 327.00 10.44 - 139.15 33.11 - - - - - - - - - 1.56 2.22 -0.80
18-Jul-2017 17:15 - - - - - - - - - - - - 7.31 20.41 446.00 18.53 - - - - 8.70 22.16 0.00 -8.39 - - - - 7.43 23.61 328.00 10.51 - 139.15 33.11 - - - - - - - - - 1.57 2.22 -0.80
18-Jul-2017 17:00 - - - - - - - - - - - - 7.31 20.32 446.00 18.53 - - - - 8.72 21.75 0.00 -8.39 - - - - 7.43 23.40 329.00 10.58 - 139.15 34.12 - - - - - - - - - 1.58 2.22 -0.80
18-Jul-2017 16:45 - - - - - - - - - - - - 7.31 20.22 446.00 18.53 - - - - 8.72 22.12 0.10 -8.39 - - - - 7.43 23.29 328.00 10.51 - 139.15 34.12 - - - - - - - - - 1.57 2.22 -0.80
18-Jul-2017 16:30 - - - - - - - - - - - - 7.32 20.13 447.00 18.60 - - - - 8.71 22.74 0.00 -8.39 - - - - 7.43 23.25 328.00 10.51 - 141.89 34.12 - - - - - - - - - 1.57 2.23 -0.80
18-Jul-2017 16:15 - - - - - - - - - - - - 7.32 20.05 447.00 18.60 - - - - 8.71 21.93 0.00 -8.39 - - - - 7.43 23.28 328.00 10.51 - 141.89 35.15 - - - - - - - - - 1.57 2.23 -0.80
18-Jul-2017 16:00 - - - - - - - - - - - - 7.32 19.98 448.00 18.67 - - - - 8.73 21.05 0.00 -8.39 - - - - 7.43 23.28 328.00 10.51 - 141.89 35.15 - - - - - - - - - 1.57 2.23 -0.80
18-Jul-2017 15:45 - - - - - - - - - - - - 7.32 19.91 447.00 18.60 - - - - 8.73 20.75 0.10 -8.39 - - - - 7.43 23.27 327.00 10.44 - 141.89 35.15 - - - - - - - - - 1.56 2.23 -0.80
18-Jul-2017 15:30 - - - - - - - - - - - - 7.32 19.86 447.00 18.60 - - - - 8.71 19.78 0.00 -8.39 - - - - 7.43 23.31 329.00 10.58 - 141.89 36.20 - - - - - - - - - 1.58 2.23 -0.80
18-Jul-2017 15:15 - - - - - - - - - - - - 7.33 19.82 447.00 18.60 - - - - 8.71 20.22 0.00 -8.39 - - - - 7.44 23.28 330.00 10.64 - 144.66 36.20 - - - - - - - - - 1.58 2.23 -0.80
18-Jul-2017 15:00 - - - - - - - - - - - - - - - - - - - - 8.71 20.19 0.10 -8.39 - - - - 7.44 23.37 330.00 10.64 - - 36.20 - - - - - - - - - 1.58 - -0.80
18-Jul-2017 14:45 - - - - - - - - - - - - - - - - - - - - 8.71 20.18 0.30 -8.38 - - - - 7.44 23.34 333.00 10.85 - - 37.28 - - - - - - - - - 1.60 - -0.80
18-Jul-2017 14:30 - - - - - - - - - - - - - - - - - - - - 8.70 20.04 0.30 -8.38 - - - - 7.44 22.94 333.00 10.85 - - 37.28 - - - - - - - - - 1.60 - -0.80
18-Jul-2017 14:15 - - - - - - - - - - - - - - - - - - - - 8.68 19.59 0.40 -8.37 - - - - 7.45 22.61 331.00 10.71 - - 38.38 - - - - - - - - - 1.59 - -0.80
18-Jul-2017 14:00 - - - - - - - - - - - - - - - - - - - - 8.67 19.39 0.40 -8.37 - - - - 7.45 22.34 332.00 10.78 - - 37.28 - - - - - - - - - 1.59 - -0.80
18-Jul-2017 13:45 - - - - - - - - - - - - - - - - - - - - 8.65 18.91 0.40 -8.37 - - - - 7.46 22.10 332.00 10.78 - - 38.38 - - - - - - - - - 1.59 - -0.80
18-Jul-2017 13:30 - - - - - - - - - - - - - - - - - - - - 8.64 18.56 0.40 -8.37 - - - - 7.46 21.77 332.00 10.78 - - 38.38 - - - - - - - - - 1.59 - -0.80
18-Jul-2017 13:15 - - - - - - - - - - - - - - - - - - - - 8.62 18.16 0.50 -8.37 - - - - 7.47 21.40 331.00 10.71 - - 38.38 - - - - - - - - - 1.59 - -0.80
18-Jul-2017 13:00 - - - - - - - - - - - - - - - - - - - - 8.61 17.80 0.40 -8.37 - - - - 7.47 21.04 331.00 10.71 - - 38.38 - - - - - - - - - 1.59 - -0.80
18-Jul-2017 12:45 - - - - - - - - - - - - - - - - - - - - 8.63 17.34 0.40 -8.37 - - - - 7.48 20.69 330.00 10.64 - - 38.38 - - - - - - - - - 1.58 - -0.80
18-Jul-2017 12:30 - - - - - - - - - - - - - - - - - - - - 8.61 16.90 0.50 -8.37 - - - - 7.48 20.33 330.00 10.64 - - 39.50 - - - - - - - - - 1.58 - -0.80
18-Jul-2017 12:15 - - - - - - - - - - - - - - - - - - - - 8.60 16.55 0.40 -8.37 - - - - 7.49 19.98 329.00 10.58 - - 39.50 - - - - - - - - - 1.58 - -0.80
18-Jul-2017 12:00 - - - - - - - - - - - - 7.36 16.37 447.00 18.60 - - - - 8.58 16.28 0.50 -8.37 - - - - 7.49 19.63 329.00 10.58 - 150.30 39.50 - - - - - - - - - 1.58 2.23 -0.80
18-Jul-2017 11:45 - - - - - - - - - - - - 7.36 16.11 444.00 18.40 - - - - 8.55 15.89 0.50 -8.37 - - - - 7.49 19.28 328.00 10.51 - 150.30 39.50 - - - - - - - - - 1.57 2.21 -0.80
18-Jul-2017 11:30 - - - - - - - - - - - - 7.36 15.89 441.00 18.19 - - - - 8.54 15.55 0.50 -8.37 - - - - 7.50 18.92 327.00 10.44 - 150.30 39.50 - - - - - - - - - 1.56 2.19 -0.80
18-Jul-2017 11:15 - - - - - - - - - - - - 7.36 15.73 437.00 17.92 - - - - 8.54 15.22 0.50 -8.37 - - - - 7.50 18.57 327.00 1,310.71 - 150.30 39.50 - - - - - - - - - 1.56 2.16 -0.80
18-Jul-2017 11:00 - - - - - - - - - - - - - - - - - - - - 8.53 14.86 0.60 -8.36 - - - - 7.50 18.23 326.00 10.37 - - 39.50 - - - - - - - - - 1.56 - -0.80
18-Jul-2017 10:45 - - - - - - - - - - - - - - - - - - - - 8.49 14.47 0.50 -8.37 - - - - 7.51 17.89 323.00 10.17 - - 39.50 - - - - - - - - - 1.54 - -0.80
18-Jul-2017 10:30 - - - - - - - - - - - - - - - - - - - - 8.48 14.14 0.60 -8.36 - - - - 7.51 17.56 323.00 10.17 - - 39.50 - - - - - - - - - 1.54 - -0.80
18-Jul-2017 10:15 - - - - - - - - - - - - - - - - - - - - 8.47 13.77 0.60 -8.36 - - - - 7.51 17.25 321.00 10.03 - - 39.50 - - - - - - - - - 1.53 - -0.80
18-Jul-2017 10:00 - - - - - - - - - - - - - - - - - - - - 8.44 13.45 0.60 -8.36 - - - - 7.52 16.96 321.00 10.03 - - 39.50 - - - - - - - - - 1.53 - -0.80
18-Jul-2017 09:45 - - - - - - - - - - - - - - - - - - - - 8.43 13.15 0.60 -8.36 - - - - 7.52 16.69 321.00 10.03 - - 40.65 - - - - - - - - - 1.53 - -0.80
18-Jul-2017 09:30 - - - - - - - - - - - - - - - - - - - - 8.42 12.89 0.60 -8.36 - - - - 7.52 16.44 320.00 9.96 - - 40.65 - - - - - - - - - 1.52 - -0.80
18-Jul-2017 09:15 - - - - - - - - - - - - - - - - - - - - 8.40 12.67 0.50 -8.37 - - - - 7.52 16.23 318.00 9.83 - - 39.50 - - - - - - - - - 1.51 - -0.80
18-Jul-2017 09:00 - - - - - - - - - - - - - - - - - - - - 8.41 12.47 0.60 -8.36 - - - - 7.52 16.06 319.00 9.90 - - 39.50 - - - - - - - - - 1.51 - -0.80
18-Jul-2017 08:45 - - - - - - - - - - - - - - - - - - - - 8.37 12.30 0.60 -8.36 - - - - 7.52 15.92 318.00 9.83 - - 39.50 - - - - - - - - - 1.51 - -0.80
18-Jul-2017 08:30 - - - - - - - - - - - - - - - - - - - - 8.36 12.16 0.60 -8.36 - - - - 7.52 15.81 317.00 9.76 - - 40.65 - - - - - - - - - 1.50 - -0.80
18-Jul-2017 08:15 - - - - - - - - - - - - - - - - - - - - 8.34 12.04 0.90 -8.35 - - - - 7.53 15.73 318.00 9.83 - - 39.50 - - - - - - - - - 1.51 - -0.79
18-Jul-2017 08:00 - - - - - - - - - - - - - - - - - - - - - - - - - - - - 7.53 15.69 317.00 9.76 - - - - - - - - - - - - 1.50 - -
18-Jul-2017 07:45 - - - - - - - - - - - - - - - - - - - - - - - - - - - - 7.53 15.67 317.00 9.76 - - - - - - - - - - - - 1.50 - -
18-Jul-2017 07:30 - - - - - - - - - - - - - - - - - - - - - - - - - - - - 7.52 15.69 316.00 9.69 - - - - - - - - - - - - 1.49 - -
18-Jul-2017 07:15 - - - - - - - - - - - - - - - - - - - - - - - - - - - - 7.52 15.74 316.00 9.69 - - - - - - - - - - - - 1.49 - -
18-Jul-2017 07:00 - - - - - - - - - - - - - - - - - - - - - - - - - - - - 7.52 15.81 316.00 9.69 - - - - - - - - - - - - 1.49 - -
18-Jul-2017 06:45 - - - - - - - - - - - - - - - - - - - - - - - - - - - - 7.52 15.92 317.00 9.76 - - - - - - - - - - - - 1.50 - -
18-Jul-2017 06:30 - - - - - - - - - - - - - - - - - - - - - - - - - - - - 7.52 16.02 317.00 9.76 - - - - - - - - - - - - 1.50 - -
18-Jul-2017 06:15 - - - - - - - - - - - - - - - - - - - - - - - - - - - - 7.52 16.15 316.00 9.69 - - - - - - - - - - - - 1.49 - -
18-Jul-2017 06:00 - - - - - - - - - - - - - - - - - - - - 8.26 12.25 0.90 -8.35 - - - - 7.51 16.27 317.00 1,310.71 - - 38.38 - - - - - - - - - 1.50 - -0.79
18-Jul-2017 05:45 - - - - - - - - - - - - - - - - - - - - 8.26 12.36 0.80 -8.35 - - - - 7.51 16.39 317.00 1,310.71 - - 38.38 - - - - - - - - - 1.50 - -0.79
18-Jul-2017 05:30 - - - - - - - - - - - - - - - - - - - - 8.26 12.49 0.80 -8.35 - - - - 7.51 16.53 317.00 9.76 - - 39.50 - - - - - - - - - 1.50 - -0.79
18-Jul-2017 05:15 - - - - - - - - - - - - - - - - - - - - 8.26 12.61 0.70 -8.36 - - - - 7.50 16.66 317.00 9.76 - - 38.38 - - - - - - - - - 1.50 - -0.79
18-Jul-2017 05:00 - - - - - - - - - - - - - - - - - - - - 8.26 12.74 0.70 -8.36 - - - - 7.50 16.79 318.00 1,310.71 - - 38.38 - - - - - - - - - 1.51 - -0.79
18-Jul-2017 04:45 - - - - - - - - - - - - - - - - - - - - 8.27 12.86 0.60 -8.36 - - - - 7.50 16.92 318.00 9.83 - - 38.38 - - - - - - - - - 1.51 - -0.80
18-Jul-2017 04:30 - - - - - - - - - - - - - - - - - - - - 8.27 13.00 0.70 -8.36 - - - - 7.50 17.06 318.00 9.83 - - 38.38 - - - - - - - - - 1.51 - -0.79
18-Jul-2017 04:15 - - - - - - - - - - - - - - - - - - - - 8.27 13.11 0.70 -8.36 - - - - 7.49 17.20 319.00 9.90 - - 38.38 - - - - - - - - - 1.51 - -0.79
18-Jul-2017 04:00 - - - - - - - - - - - - - - - - - - - - - - - - - - - - 7.49 17.34 319.00 9.90 - - - - - - - - - - - - 1.51 - -
18-Jul-2017 03:45 - - - - - - - - - - - - - - - - - - - - - - - - - - - - 7.49 17.47 319.00 9.90 - - - - - - - - - - - - 1.51 - -
18-Jul-2017 03:30 - - - - - - - - - - - - - - - - - - - - - - - - - - - - 7.48 17.61 320.00 9.96 - - - - - - - - - - - - 1.52 - -
18-Jul-2017 03:15 - - - - - - - - - - - - - - - - - - - - - - - - - - - - 7.48 17.75 320.00 9.96 - - - - - - - - - - - - 1.52 - -
18-Jul-2017 03:00 - - - - - - - - - - - - - - - - - - - - 8.27 13.74 0.60 -8.36 - - - - 7.48 17.89 320.00 9.96 - - 38.38 - - - - - - - - - 1.52 - -0.80
18-Jul-2017 02:45 - - - - - - - - - - - - - - - - - - - - 8.28 13.86 0.70 -8.36 - - - - 7.48 18.03 320.00 9.96 - - 37.28 - - - - - - - - - 1.52 - -0.79
18-Jul-2017 02:30 - - - - - - - - - - - - - - - - - - - - 8.27 14.00 0.70 -8.36 - - - - 7.48 18.17 321.00 10.03 - - 38.38 - - - - - - - - - 1.53 - -0.79
18-Jul-2017 02:15 - - - - - - - - - - - - - - - - - - - - 8.27 14.11 0.70 -8.36 - - - - 7.47 18.31 321.00 10.03 - - 38.38 - - - - - - - - - 1.53 - -0.79
18-Jul-2017 02:00 - - - - - - - - - - - - - - - - - - - - 8.27 14.25 0.70 -8.36 - - - - 7.47 18.44 321.00 10.03 - - 37.28 - - - - - - - - - 1.53 - -0.79
18-Jul-2017 01:45 - - - - - - - - - - - - - - - - - - - - 8.28 14.38 0.60 -8.36 - - - - 7.47 18.57 319.00 9.90 - - 38.38 - - - - - - - - - 1.51 - -0.80
18-Jul-2017 01:30 - - - - - - - - - - - - - - - - - - - - 8.28 14.51 0.60 -8.36 - - - - 7.47 18.70 321.00 10.03 - - 38.38 - - - - - - - - - 1.53 - -0.80
18-Jul-2017 01:15 - - - - - - - - - - - - - - - - - - - - 8.28 14.65 0.60 -8.36 - - - - 7.46 18.83 322.00 10.10 - - 38.38 - - - - - - - - - 1.53 - -0.80
18-Jul-2017 01:00 - - - - - - - - - - - - - - - - - - - - - - - - - - - - 7.46 18.97 322.00 10.10 - - - - - - - - - - - - 1.53 - -
18-Jul-2017 00:45 - - - - - - - - - - - - - - - - - - - - - - - - - - - - 7.46 19.10 322.00 10.10 - - - - - - - - - - - - 1.53 - -
18-Jul-2017 00:30 - - - - - - - - - - - - - - - - - - - - - - - - - - - - 7.45 19.24 323.00 10.17 - - - - - - - - - - - - 1.54 - -
18-Jul-2017 00:15 - - - - - - - - - - - - - - - - - - - - - - - - - - - - 7.45 19.40 324.00 10.24 - - - - - - - - - - - - 1.54 - -
18-Jul-2017 00:00 - - - - - - - - - - - - - - - - - - - - 8.32 15.27 0.60 -8.36 - - - - 7.45 19.55 324.00 10.24 - - 37.28 - - - - - - - - - 1.54 - -0.80
17-Jul-2017 23:45 - - - - - - - - - - - - - - - - - - - - 8.30 15.51 0.50 -8.37 - - - - 7.44 19.72 325.00 10.30 - - 38.38 - - - - - - - - - 1.55 - -0.80
17-Jul-2017 23:30 - - - - - - - - - - - - - - - - - - - - 8.33 15.63 0.60 -8.36 - - - - 7.44 19.88 325.00 10.30 - - 37.28 - - - - - - - - - 1.55 - -0.80
17-Jul-2017 23:15 - - - - - - - - - - - - - - - - - - - - 8.31 15.62 0.50 -8.37 - - - - 7.44 20.04 324.00 10.24 - - 37.28 - - - - - - - - - 1.54 - -0.80
17-Jul-2017 23:00 - - - - - - - - - - - - - - - - - - - - 8.31 15.86 0.50 -8.37 - - - - 7.44 20.21 325.00 10.30 - - 37.28 - - - - - - - - - 1.55 - -0.80
17-Jul-2017 22:45 - - - - - - - - - - - - - - - - - - - - 8.33 16.12 0.50 -8.37 - - - - 7.43 20.39 326.00 10.37 - - 37.28 - - - - - - - - - 1.56 - -0.80
17-Jul-2017 22:30 - - - - - - - - - - - - - - - - - - - - 8.33 16.20 0.60 -8.36 - - - - 7.43 20.56 327.00 10.44 - - 37.28 - - - - - - - - - 1.56 - -0.80
17-Jul-2017 22:15 - - - - - - - - - - - - - - - - - - - - 8.35 16.22 0.50 -8.37 - - - - 7.43 20.74 330.00 10.64 - - 37.28 - - - - - - - - - 1.58 - -0.80
17-Jul-2017 22:00 - - - - - - - - - - - - - - - - - - - - 8.37 16.51 0.60 -8.36 - - - - 7.43 20.93 330.00 10.64 - - 36.20 - - - - - - - - - 1.58 - -0.80
17-Jul-2017 21:45 - - - - - - - - - - - - - - - - - - - - 8.38 16.75 0.50 -8.37 - - - - 7.42 21.13 331.00 10.71 - - 36.20 - - - - - - - - - 1.59 - -0.80
17-Jul-2017 21:30 - - - - - - - - - - - - - - - - - - - - 8.39 16.99 0.60 -8.36 - - - - 7.42 21.34 330.00 10.64 - - 35.15 - - - - - - - - - 1.58 - -0.80
17-Jul-2017 21:15 - - - - - - - - - - - - - - - - - - - - 8.40 17.01 0.40 -8.37 - - - - 7.42 21.55 331.00 10.71 - - 36.20 - - - - - - - - - 1.59 - -0.80
17-Jul-2017 21:00 - - - - - - - - - - - - - - - - - - - - 8.42 17.30 0.50 -8.37 - - - - 7.41 21.77 332.00 10.78 - - 36.20 - - - - - - - - - 1.59 - -0.80
17-Jul-2017 20:45 - - - - - - - - - - - - - - - - - - - - 8.43 17.49 0.50 -8.37 - - - - 7.41 21.98 330.00 10.64 - - 35.15 - - - - - - - - - 1.58 - -0.80
17-Jul-2017 20:30 - - - - - - - - - - - - - - - - - - - - 8.45 17.70 0.50 -8.37 - - - - 7.41 22.18 332.00 10.78 - - 35.15 - - - - - - - - - 1.59 - -0.80
17-Jul-2017 20:15 - - - - - - - - - - - - - - - - - - - - 8.47 17.97 0.50 -8.37 - - - - 7.41 22.36 331.00 10.71 - - 35.15 - - - - - - - - - 1.59 - -0.80
17-Jul-2017 20:00 - - - - - - - - - - - - - - - - - - - - 8.49 18.26 0.50 -8.37 - - - - 7.41 22.54 331.00 1,310.71 - - 36.20 - - - - - - - - - 1.59 - -0.80
17-Jul-2017 19:45 - - - - - - - - - - - - - - - - - - - - 8.50 18.33 0.50 -8.37 - - - - 7.40 22.72 332.00 1,310.71 - - 36.20 - - - - - - - - - 1.59 - -0.80
17-Jul-2017 19:30 - - - - - - - - - - - - - - - - - - - - 8.52 18.53 0.50 -8.37 - - - - 7.40 22.93 329.00 1,310.71 - - 35.15 - - - - - - - - - 1.58 - -0.80
17-Jul-2017 19:15 - - - - - - - - - - - - - - - - - - - - 8.53 18.61 0.50 -8.37 - - - - 7.40 23.16 330.00 10.64 - - 36.20 - - - - - - - - - 1.58 - -0.80
17-Jul-2017 19:00 - - - - - - - - - - - - 7.32 19.94 468.00 20.03 - - - - 8.54 18.84 0.50 -8.37 - - - - 7.40 23.36 331.00 10.71 - 150.30 36.20 - - - - - - - - - 1.59 2.36 -0.80
17-Jul-2017 18:45 - - - - - - - - - - - - 7.32 19.99 469.00 20.10 - - - - 8.55 18.76 0.50 -8.37 - - - - 7.40 23.53 330.00 10.64 - 150.30 36.20 - - - - - - - - - 1.58 2.37 -0.80
17-Jul-2017 18:30 - - - - - - - - - - - - 7.32 20.05 471.00 20.23 - - - - 8.56 18.87 0.50 -8.37 - - - - 7.40 23.67 332.00 10.78 - 150.30 37.28 - - - - - - - - - 1.59 2.38 -0.80
17-Jul-2017 18:15 - - - - - - - - - - - - 7.32 20.11 471.00 20.23 - - - - 8.57 19.20 0.40 -8.37 - - - - 7.40 23.79 333.00 10.85 - 150.30 37.28 - - - - - - - - - 1.60 2.38 -0.80
17-Jul-2017 18:00 - - - - - - - - - - - - 7.32 20.16 473.00 20.37 - - - - 8.58 19.24 0.40 -8.37 - - - - 7.40 23.87 332.00 10.78 - 150.30 36.20 - - - - - - - - - 1.59 2.40 -0.80
17-Jul-2017 17:45 - - - - - - - - - - - - 7.32 20.21 474.00 20.44 - - - - 8.58 19.17 0.40 -8.37 - - - - 7.40 23.94 332.00 10.78 - 150.30 36.20 - - - - - - - - - 1.59 2.40 -0.80
17-Jul-2017 17:30 - - - - - - - - - - - - 7.32 20.23 475.00 20.50 - - - - 8.58 19.12 0.50 -8.37 - - - - 7.40 24.04 334.00 10.92 - 153.16 37.28 - - - - - - - - - 1.61 2.41 -0.80
17-Jul-2017 17:15 - - - - - - - - - - - - 7.32 20.21 477.00 20.64 - - - - 8.58 19.65 0.60 -8.36 - - - - 7.40 24.06 334.00 10.92 - 153.16 36.20 - - - - - - - - - 1.61 2.42 -0.80
17-Jul-2017 17:00 - - - - - - - - - - - - - - - - - - - - 8.59 19.76 0.50 -8.37 - - - - 7.41 24.00 335.00 10.98 - - 37.28 - - - - - - - - - 1.61 - -0.80
17-Jul-2017 16:45 - - - - - - - - - - - - - - - - - - - - 8.58 19.92 0.60 -8.36 - - - - 7.41 23.92 335.00 10.98 - - 38.38 - - - - - - - - - 1.61 - -0.80
17-Jul-2017 16:30 - - - - - - - - - - - - - - - - - - - - 8.59 19.93 0.60 -8.36 - - - - 7.41 23.86 334.00 10.92 - - 38.38 - - - - - - - - - 1.61 - -0.80
17-Jul-2017 16:15 - - - - - - - - - - - - - - - - - - - - 8.60 19.97 0.60 -8.36 - - - - 7.42 23.76 333.00 10.85 - - 39.50 - - - - - - - - - 1.60 - -0.80
17-Jul-2017 16:00 - - - - - - - - - - - - - - - - - - - - 8.60 20.01 0.80 -8.35 - - - - 7.42 23.60 335.00 10.98 - - 39.50 - - - - - - - - - 1.61 - -0.79
17-Jul-2017 15:45 - - - - - - - - - - - - - - - - - - - - 8.59 20.15 1.00 -8.34 - - - - 7.42 23.45 334.00 10.92 - - 39.50 - - - - - - - - - 1.61 - -0.79
17-Jul-2017 15:30 - - - - - - - - - - - - - - - - - - - - 8.58 20.00 0.80 -8.35 - - - - 7.43 23.26 335.00 10.98 - - 40.65 - - - - - - - - - 1.61 - -0.79
17-Jul-2017 15:15 - - - - - - - - - - - - - - - - - - - - 8.58 19.94 0.90 -8.35 - - - - 7.43 23.05 335.00 10.98 - - 41.82 - - - - - - - - - 1.61 - -0.79
17-Jul-2017 15:00 - - - - - - - - - - - - 7.36 18.99 504.00 22.48 - - - - 8.58 19.80 0.90 -8.35 - - - - 7.44 22.79 333.00 10.85 - 158.98 39.50 - - - - - - - - - 1.60 2.60 -0.79
17-Jul-2017 14:45 - - - - - - - - - - - - 7.36 18.71 505.00 22.54 - - - - 8.57 19.78 1.30 -8.33 - - - - 7.44 22.54 332.00 10.78 - 158.98 40.65 - - - - - - - - - 1.59 2.61 -0.79
17-Jul-2017 14:30 - - - - - - - - - - - - 7.37 18.43 504.00 22.48 - - - - 8.56 19.44 1.00 -8.34 - - - - 7.45 22.29 332.00 10.78 - 158.98 41.82 - - - - - - - - - 1.59 2.60 -0.79
17-Jul-2017 14:15 - - - - - - - - - - - - 7.37 18.15 503.00 22.41 - - - - 8.55 19.22 0.90 -8.35 - - - - 7.45 22.02 332.00 10.78 - 158.98 40.65 - - - - - - - - - 1.59 2.59 -0.79
17-Jul-2017 14:00 - - - - - - - - - - - - 7.37 17.87 502.00 22.34 - - - - 8.54 18.89 2.40 -8.27 - - - - 7.46 21.76 331.00 10.71 - 161.94 41.82 - - - - - - - - - 1.59 2.59 -0.78
17-Jul-2017 13:45 - - - - - - - - - - - - 7.38 17.58 500.00 22.20 - - - - 8.52 18.57 2.50 -8.27 - - - - 7.46 21.46 331.00 10.71 - 161.94 43.02 - - - - - - - - - 1.59 2.57 -0.78
17-Jul-2017 13:30 - - - - - - - - - - - - 7.38 17.27 498.00 22.07 - - - - 8.52 18.22 1.80 -8.30 - - - - 7.47 21.14 331.00 10.71 - 161.94 41.82 - - - - - - - - - 1.59 2.56 -0.79
17-Jul-2017 13:15 - - - - - - - - - - - - 7.38 16.98 496.00 21.93 - - - - 8.51 17.86 2.50 -8.27 - - - - 7.47 20.80 331.00 10.71 - 161.94 43.02 - - - - - - - - - 1.59 2.55 -0.78
17-Jul-2017 13:00 - - - - - - - - - - - - 7.38 16.71 494.00 21.80 - - - - 8.49 17.49 1.10 -8.34 - - - - 7.47 20.47 329.00 10.58 - 161.94 43.02 - - - - - - - - - 1.58 2.53 -0.79
17-Jul-2017 12:45 - - - - - - - - - - - - 7.38 16.47 493.00 21.73 - - - - 8.48 17.10 1.40 -8.32 - - - - 7.48 20.12 329.00 10.58 - 161.94 43.02 - - - - - - - - - 1.58 2.53 -0.79
17-Jul-2017 12:30 - - - - - - - - - - - - 7.38 16.23 492.00 21.66 - - - - 8.46 16.72 1.20 -8.33 - - - - 7.48 19.78 329.00 10.58 - 164.93 43.02 - - - - - - - - - 1.58 2.52 -0.79
17-Jul-2017 12:15 - - - - - - - - - - - - 7.38 16.02 490.00 21.52 - - - - 8.45 16.33 1.20 -8.33 - - - - 7.48 19.44 328.00 10.51 - 164.93 43.02 - - - - - - - - - 1.57 2.51 -0.79
17-Jul-2017 12:00 - - - - - - - - - - - - - - - - - - - - 8.43 15.96 1.20 -8.33 - - - - 7.49 19.10 329.00 10.58 - - 44.24 - - - - - - - - - 1.58 - -0.79
17-Jul-2017 11:45 - - - - - - - - - - - - - - - - - - - - 8.42 15.59 1.10 -8.34 - - - - 7.49 18.76 327.00 10.44 - - 44.24 - - - - - - - - - 1.56 - -0.79
17-Jul-2017 11:30 - - - - - - - - - - - - - - - - - - - - 8.43 15.21 6.20 -8.09 - - - - 7.49 18.42 328.00 10.51 - - 44.24 - - - - - - - - - 1.57 - -0.76
17-Jul-2017 11:15 - - - - - - - - - - - - - - - - - - - - 8.42 14.86 46.60 -6.13 - - - - 7.49 18.09 326.00 10.37 - - 45.49 - - - - - - - - - 1.56 - -0.53
17-Jul-2017 11:00 - - - - - - - - - - - - - - - - - - - - 8.49 14.51 4.60 -8.17 - - - - 7.50 17.76 324.00 10.24 - - 45.49 - - - - - - - - - 1.54 - -0.77
17-Jul-2017 10:45 - - - - - - - - - - - - - - - - - - - - 8.39 14.18 52.10 -5.86 - - - - 7.50 17.44 325.00 10.30 - - 44.24 - - - - - - - - - 1.55 - -0.50
17-Jul-2017 10:30 - - - - - - - - - - - - - - - - - - - - 8.38 13.85 207.00 1.67 - - - - 7.50 17.13 325.00 10.30 - - 44.24 - - - - - - - - - 1.55 - 0.40
17-Jul-2017 10:15 - - - - - - - - - - - - - - - - - - - - 8.37 13.53 172.20 -0.02 - - - - 7.50 16.84 324.00 10.24 - - 45.49 - - - - - - - - - 1.54 - 0.20
17-Jul-2017 10:00 - - - - - - - - - - - - - - - - - - - - 8.34 13.21 10.10 -7.90 - - - - 7.50 16.56 323.00 10.17 - - 45.49 - - - - - - - - - 1.54 - -0.74
17-Jul-2017 09:45 - - - - - - - - - - - - - - - - - - - - 8.35 12.90 84.10 -4.30 - - - - 7.50 16.31 324.00 10.24 - - 44.24 - - - - - - - - - 1.54 - -0.31
17-Jul-2017 09:30 - - - - - - - - - - - - - - - - - - - - 8.34 12.62 231.00 2.84 - - - - 7.50 16.08 323.00 10.17 - - 45.49 - - - - - - - - - 1.54 - 0.54
17-Jul-2017 09:15 - - - - - - - - - - - - - - - - - - - - 8.38 12.40 155.00 -0.86 - - - - 7.50 15.88 322.00 10.10 - - 45.49 - - - - - - - - - 1.53 - 0.10
17-Jul-2017 09:00 - - - - - - - - - - - - - - - - - - - - 8.30 12.23 107.80 -3.15 - - - - 7.49 15.70 323.00 10.17 - - 45.49 - - - - - - - - - 1.54 - -0.17
17-Jul-2017 08:45 - - - - - - - - - - - - - - - - - - - - 8.28 12.08 194.90 1.08 - - - - 7.49 15.57 322.00 10.10 - - 44.24 - - - - - - - - - 1.53 - 0.33
17-Jul-2017 08:30 - - - - - - - - - - - - - - - - - - - - 8.27 11.93 91.90 -3.92 - - - - 7.49 15.47 321.00 10.03 - - 43.02 - - - - - - - - - 1.53 - -0.27
17-Jul-2017 08:15 - - - - - - - - - - - - - - - - - - - - 8.25 11.80 230.00 2.79 - - - - 7.49 15.40 321.00 10.03 - - 43.02 - - - - - - - - - 1.53 - 0.53
17-Jul-2017 08:00 - - - - - - - - - - - - - - - - - - - - - - - - - - - - 7.48 15.35 321.00 10.03 - - - - - - - - - - - - 1.53 - -
17-Jul-2017 07:45 - - - - - - - - - - - - - - - - - - - - - - - - - - - - 7.48 15.31 321.00 10.03 - - - - - - - - - - - - 1.53 - -
17-Jul-2017 07:30 - - - - - - - - - - - - - - - - - - - - - - - - - - - - 7.48 15.32 321.00 10.03 - - - - - - - - - - - - 1.53 - -
17-Jul-2017 07:15 - - - - - - - - - - - - - - - - - - - - - - - - - - - - 7.48 15.35 319.00 9.90 - - - - - - - - - - - - 1.51 - -
17-Jul-2017 07:00 - - - - - - - - - - - - - - - - - - - - - - - - - - - - 7.48 15.41 321.00 10.03 - - - - - - - - - - - - 1.53 - -
17-Jul-2017 06:45 - - - - - - - - - - - - - - - - - - - - - - - - - - - - 7.48 15.50 318.00 9.83 - - - - - - - - - - - - 1.51 - -
17-Jul-2017 06:30 - - - - - - - - - - - - - - - - - - - - - - - - - - - - 7.48 15.60 318.00 9.83 - - - - - - - - - - - - 1.51 - -
17-Jul-2017 06:15 - - - - - - - - - - - - - - - - - - - - - - - - - - - - 7.47 15.72 320.00 9.96 - - - - - - - - - - - - 1.52 - -
17-Jul-2017 06:00 - - - - - - - - - - - - - - - - - - - - - - - - - - - - 7.47 15.84 320.00 9.96 - - - - - - - - - - - - 1.52 - -
17-Jul-2017 05:45 - - - - - - - - - - - - - - - - - - - - - - - - - - - - 7.47 15.95 320.00 9.96 - - - - - - - - - - - - 1.52 - -
17-Jul-2017 05:30 - - - - - - - - - - - - - - - - - - - - - - - - - - - - 7.47 16.06 320.00 9.96 - - - - - - - - - - - - 1.52 - -
17-Jul-2017 05:15 - - - - - - - - - - - - - - - - - - - - - - - - - - - - 7.47 16.17 320.00 9.96 - - - - - - - - - - - - 1.52 - -
17-Jul-2017 05:00 - - - - - - - - - - - - - - - - - - - - - - - - - - - - 7.47 16.29 321.00 10.03 - - - - - - - - - - - - 1.53 - -
17-Jul-2017 04:45 - - - - - - - - - - - - - - - - - - - - - - - - - - - - 7.46 16.41 321.00 10.03 - - - - - - - - - - - - 1.53 - -
17-Jul-2017 04:30 - - - - - - - - - - - - - - - - - - - - - - - - - - - - 7.46 16.53 321.00 10.03 - - - - - - - - - - - - 1.53 - -
17-Jul-2017 04:15 - - - - - - - - - - - - - - - - - - - - - - - - - - - - 7.46 16.66 321.00 10.03 - - - - - - - - - - - - 1.53 - -
17-Jul-2017 04:00 - - - - - - - - - - - - - - - - - - - - 8.15 12.67 48.70 -6.02 - - - - 7.46 16.79 321.00 10.03 - - 45.49 - - - - - - - - - 1.53 - -0.52
17-Jul-2017 03:45 - - - - - - - - - - - - - - - - - - - - 8.19 12.77 4.40 -8.18 - - - - 7.46 16.92 321.00 10.03 - - 45.49 - - - - - - - - - 1.53 - -0.77
17-Jul-2017 03:30 - - - - - - - - - - - - - - - - - - - - 8.21 12.88 117.70 -2.67 - - - - 7.46 17.05 322.00 1,310.71 - - 44.24 - - - - - - - - - 1.53 - -0.12
17-Jul-2017 03:15 - - - - - - - - - - - - - - - - - - - - 8.17 12.99 65.10 -5.23 - - - - 7.46 17.18 321.00 1,310.71 -</